Data for 10/14/2008

Time Sea-Level Adjusted Pressure Absolute Pressure Temperature Relative Humidity Dew Point Precipitation   
(mb) (inHg) (mb) (inHg) (C) (F) (%) (C) (F) (mm) (in)
00:01 1028 30.36 858 25.34 1 33.8 86 -1.1 30.1 0
00:02 1028 30.36 858 25.34 0.8 33.4 86 -1.3 29.7 0
00:03 1028 30.36 858 25.34 0.6 33 88 -1.2 29.8 0
00:04 1028 30.36 858 25.34 0.6 33.1 89 -1 30.2 0
00:05 1028 30.36 857 25.31 0.7 33.2 90 -0.8 30.6 0
00:06 1028 30.36 857 25.31 0.7 33.3 90 -0.7 30.7 0
00:07 1028 30.36 857 25.31 0.8 33.4 90 -0.6 30.8 0
00:08 1028 30.36 857 25.31 1 33.7 90 -0.6 31 0
00:09 1028 30.36 857 25.31 1.2 34.1 89 -0.4 31.2 0
00:10 1028 30.36 857 25.31 1.3 34.3 88 -0.4 31.2 0
00:11 1028 30.36 857 25.31 1.4 34.5 87 -0.6 31 0
00:12 1028 30.36 857 25.31 1.4 34.5 86 -0.7 30.7 0
00:13 1028 30.36 857 25.31 1.3 34.4 86 -0.7 30.7 0
00:14 1028 30.36 857 25.31 1.2 34.2 87 -0.7 30.7 0
00:15 1028 30.36 857 25.31 1.2 34.1 87 -0.7 30.7 0
00:16 1028 30.36 857 25.31 1.1 33.9 88 -0.7 30.8 0
00:17 1028 30.36 857 25.31 1.1 34 88 -0.7 30.8 0
00:18 1028 30.36 857 25.31 1.1 33.9 88 -0.7 30.8 0
00:19 1028 30.36 857 25.31 1.1 33.9 88 -0.8 30.6 0
00:20 1028 30.36 857 25.31 1 33.8 88 -0.8 30.5 0
00:21 1028 30.36 857 25.31 0.9 33.7 88 -0.8 30.6 0
00:22 1028 30.36 857 25.31 1 33.7 89 -0.7 30.8 0
00:23 1028 30.36 857 25.31 1.1 33.9 88 -0.6 30.8 0
00:24 1028 30.36 857 25.31 1.1 34 87 -0.8 30.6 0
00:25 1028 30.36 857 25.31 0.9 33.7 86 -1.2 29.9 0
00:26 1028 30.36 857 25.31 0.7 33.3 87 -1.2 29.8 0
00:27 1028 30.36 857 25.31 0.5 32.9 87 -1.5 29.4 0
00:28 1028 30.36 857 25.31 0.4 32.7 89 -1.3 29.7 0
00:29 1028 30.36 857 25.31 0.3 32.6 89 -1.3 29.7 0
00:30 1028 30.36 857 25.31 0.2 32.4 89 -1.3 29.6 0
00:31 1028 30.36 857 25.31 0.3 32.5 91 -1 30.2 0
00:32 1028 30.36 857 25.31 0.4 32.8 91 -0.9 30.3 0
00:33 1028 30.36 857 25.31 0.5 32.9 88 -1.2 29.8 0
00:34 1028 30.36 857 25.31 0.4 32.7 88 -1.4 29.5 0
00:35 1028 30.36 857 25.31 0.2 32.3 89 -1.5 29.4 0
00:36 1028 30.36 857 25.31 0.2 32.3 91 -1.2 29.9 0
00:37 1028 30.36 857 25.31 0.2 32.3 89 -1.4 29.5 0
00:38 1028 30.36 857 25.31 0.1 32.1 89 -1.5 29.3 0
00:39 1028 30.36 857 25.31 -0 31.9 89 -1.6 29.1 0
00:40 1028 30.36 857 25.31 -0.2 31.7 89 -1.7 28.9 0
00:41 1028 30.36 857 25.31 -0.3 31.5 90 -1.7 28.9 0
00:42 1028 30.36 857 25.31 -0.4 31.3 90 -1.8 28.8 0
00:43 1028 30.36 857 25.31 -0.4 31.2 91 -1.7 29 0
00:44 1028 30.36 857 25.31 -0.4 31.3 92 -1.6 29.1 0
00:45 1028 30.36 857 25.31 -0.3 31.4 93 -1.3 29.6 0
00:46 1028 30.36 857 25.31 -0.2 31.7 92 -1.3 29.7 0
00:47 1028 30.36 857 25.31 -0.1 31.8 91 -1.4 29.5 0
00:48 1028 30.36 857 25.31 -0.1 31.7 90 -1.5 29.2 0
00:49 1028 30.36 857 25.31 -0.3 31.5 90 -1.8 28.8 0
00:50 1028 30.36 857 25.31 -0.4 31.3 89 -2 28.4 0
00:51 1028 30.36 857 25.31 -0.6 30.9 90 -2.1 28.3 0
00:52 1028 30.36 857 25.31 -0.7 30.7 91 -2 28.5 0
00:53 1028 30.36 857 25.31 -0.7 30.7 92 -1.9 28.6 0
00:54 1028 30.36 857 25.31 -0.6 30.8 93 -1.7 29 0
00:55 1028 30.36 857 25.31 -0.6 31 92 -1.6 29 0
00:56 1028 30.36 857 25.31 -0.5 31.1 92 -1.6 29.1 0
00:57 1028 30.36 857 25.31 -0.5 31.2 93 -1.5 29.3 0
00:58 1028 30.36 857 25.31 -0.3 31.4 92 -1.4 29.4 0
00:59 1028 30.36 857 25.31 -0.2 31.6 94 -1.2 29.9 0
01:00 1028 30.36 857 25.31 0.1 32.1 92 -1.1 30.1 0
01:01 1028 30.36 857 25.31 0.2 32.4 90 -1.1 29.9 0
01:02 1028 30.36 857 25.31 0.3 32.6 89 -1.3 29.6 0
01:03 1028 30.36 857 25.31 0.3 32.5 88 -1.4 29.5 0
01:04 1028 30.36 857 25.31 0.2 32.4 90 -1.3 29.7 0
01:05 1028 30.36 857 25.31 0.2 32.4 88 -1.5 29.3 0
01:06 1028 30.36 857 25.31 0 32.1 87 -1.8 28.7 0
01:07 1028 30.36 857 25.31 -0.2 31.7 88 -2 28.5 0
01:08 1028 30.36 857 25.31 -0.4 31.3 87 -2.3 27.9 0
01:09 1028 30.36 857 25.31 -0.6 30.8 89 -2.3 27.9 0
01:10 1028 30.36 857 25.31 -0.7 30.7 90 -2.2 28 0
01:11 1028 30.36 857 25.31 -0.7 30.7 92 -1.8 28.7 0
01:12 1028 30.36 857 25.31 -0.6 31 92 -1.7 28.9 0
01:13 1028 30.36 857 25.31 -0.4 31.2 92 -1.6 29.1 0
01:14 1028 30.36 857 25.31 -0.3 31.5 92 -1.4 29.4 0
01:15 1028 30.36 857 25.31 -0.1 31.7 90 -1.6 29.1 0
01:16 1028 30.36 857 25.31 -0.1 31.8 90 -1.5 29.3 0
01:17 1028 30.36 857 25.31 -0 31.9 90 -1.5 29.3 0
01:18 1028 30.36 857 25.31 0 32 89 -1.5 29.2 0
01:19 1028 30.36 857 25.31 0 32.1 91 -1.3 29.7 0
01:20 1028 30.36 857 25.31 0.2 32.4 90 -1.2 29.8 0
01:21 1028 30.36 857 25.31 0.4 32.7 89 -1.2 29.9 0
01:22 1028 30.36 857 25.31 0.5 32.9 89 -1.1 30 0
01:23 1028 30.36 857 25.31 0.6 33.1 90 -0.9 30.5 0
01:24 1028 30.36 857 25.31 0.8 33.5 90 -0.7 30.8 0
01:25 1028 30.36 857 25.31 1.2 34.1 88 -0.6 30.9 0
01:26 1028 30.36 857 25.31 1.5 34.7 88 -0.3 31.4 0
01:27 1028 30.36 857 25.31 1.8 35.3 82 -1 30.2 0
01:28 1028 30.36 857 25.31 1.4 34.6 77 -2.1 28.2 0
01:29 1028 30.36 857 25.31 0.7 33.3 79 -2.5 27.5 0
01:30 1028 30.36 857 25.31 0.3 32.5 88 -1.4 29.4 0
01:31 1028 30.36 857 25.31 0.6 33.1 90 -0.9 30.4 0
01:32 1028 30.36 857 25.31 0.9 33.7 89 -0.7 30.8 0
01:33 1028 30.36 857 25.31 1 33.8 82 -1.8 28.8 0
01:34 1028 30.36 857 25.31 0.6 33.1 84 -1.8 28.8 0
01:35 1027 30.33 857 25.31 0.3 32.6 84 -2 28.4 0
01:36 1027 30.33 857 25.31 0.2 32.3 88 -1.6 29.2 0
01:37 1027 30.33 857 25.31 0.2 32.4 89 -1.4 29.5 0
01:38 1027 30.33 857 25.31 0.3 32.6 87 -1.6 29.1 0
01:39 1027 30.33 857 25.31 0.3 32.5 87 -1.7 28.9 0
01:40 1027 30.33 857 25.31 0.1 32.3 87 -1.8 28.8 0
01:41 1027 30.33 857 25.31 -0 32 87 -2 28.5 0
01:42 1027 30.33 857 25.31 -0.2 31.7 87 -2.2 28.1 0
01:43 1027 30.33 857 25.31 -0.4 31.2 88 -2.2 28 0
01:44 1027 30.33 857 25.31 -0.6 30.8 89 -2.3 27.9 0
01:45 1027 30.33 857 25.31 -0.8 30.6 89 -2.4 27.7 0
01:46 1027 30.33 857 25.31 -0.9 30.5 91 -2.1 28.2 0
01:47 1027 30.33 857 25.31 -0.9 30.5 92 -2 28.4 0
01:48 1027 30.33 857 25.31 -0.8 30.5 91 -2.2 28.1 0
01:49 1027 30.33 857 25.31 -0.9 30.4 90 -2.3 27.8 0
01:50 1027 30.33 857 25.31 -1 30.2 91 -2.4 27.8 0
01:51 1027 30.33 857 25.31 -1 30.2 93 -2 28.4 0
01:52 1027 30.33 857 25.31 -0.8 30.6 94 -1.7 28.9 0
01:53 1027 30.33 856 25.28 -0.7 30.8 93 -1.6 29.1 0
01:54 1027 30.33 856 25.28 -0.5 31.1 91 -1.8 28.8 0
01:55 1027 30.33 856 25.28 -0.6 30.9 88 -2.3 27.8 0
01:56 1027 30.33 856 25.28 -0.9 30.4 89 -2.5 27.5 0
01:57 1027 30.33 856 25.28 -1.1 30.1 90 -2.5 27.5 0
01:58 1027 30.33 856 25.28 -1.2 29.8 90 -2.7 27.1 0
01:59 1027 30.33 856 25.28 -1.5 29.4 91 -2.8 27 0
02:00 1027 30.33 856 25.28 -1.6 29.2 92 -2.6 27.3 0
02:01 1027 30.33 856 25.28 -1.5 29.2 93 -2.5 27.5 0
02:02 1027 30.33 856 25.28 -1.5 29.2 93 -2.5 27.4 0
02:03 1027 30.33 856 25.28 -1.5 29.2 93 -2.5 27.5 0
02:04 1027 30.33 856 25.28 -1.5 29.3 92 -2.6 27.4 0
02:05 1027 30.33 856 25.28 -1.5 29.3 92 -2.6 27.2 0
02:06 1027 30.33 856 25.28 -1.6 29.2 92 -2.8 27 0
02:07 1027 30.33 856 25.28 -1.6 29.1 92 -2.7 27.1 0
02:08 1027 30.33 856 25.28 -1.7 29 93 -2.7 27.2 0
02:09 1027 30.33 856 25.28 -1.6 29.1 94 -2.5 27.4 0
02:10 1027 30.33 856 25.28 -1.5 29.2 94 -2.4 27.6 0
02:11 1027 30.33 856 25.28 -1.5 29.4 93 -2.4 27.7 0
02:12 1027 30.33 856 25.28 -1.4 29.4 93 -2.4 27.7 0
02:13 1027 30.33 856 25.28 -1.4 29.5 93 -2.3 27.8 0
02:14 1027 30.33 856 25.28 -1.3 29.7 92 -2.4 27.7 0
02:15 1027 30.33 856 25.28 -1.3 29.6 92 -2.4 27.7 0
02:16 1027 30.33 856 25.28 -1.3 29.7 92 -2.4 27.7 0
02:17 1027 30.33 856 25.28 -1.3 29.7 92 -2.4 27.7 0
02:18 1027 30.33 856 25.28 -1.3 29.7 92 -2.3 27.8 0
02:19 1027 30.33 856 25.28 -1.2 29.8 92 -2.4 27.7 0
02:20 1027 30.33 856 25.28 -1.2 29.9 93 -2.2 28 0
02:21 1027 30.33 856 25.28 -1.2 29.9 91 -2.5 27.5 0
02:22 1027 30.33 856 25.28 -1.3 29.7 90 -2.7 27.2 0
02:23 1027 30.33 856 25.28 -1.4 29.5 91 -2.7 27.1 0
02:24 1027 30.33 856 25.28 -1.5 29.4 91 -2.7 27.1 0
02:25 1027 30.33 856 25.28 -1.5 29.3 92 -2.6 27.4 0
02:26 1027 30.33 856 25.28 -1.4 29.4 93 -2.5 27.6 0
02:27 1027 30.33 856 25.28 -1.4 29.5 93 -2.4 27.7 0
02:28 1027 30.33 856 25.28 -1.3 29.6 92 -2.5 27.5 0
02:29 1027 30.33 856 25.28 -1.3 29.7 93 -2.4 27.7 0
02:30 1027 30.33 856 25.28 -1.3 29.7 93 -2.3 27.9 0
02:31 1027 30.33 856 25.28 -1.2 29.8 93 -2.2 28.1 0
02:32 1027 30.33 856 25.28 -1.1 30 92 -2.2 28 0
02:33 1027 30.33 856 25.28 -1.2 29.9 92 -2.4 27.8 0
02:34 1027 30.33 856 25.28 -1.1 30.1 93 -2.1 28.2 0
02:35 1027 30.33 856 25.28 -0.9 30.3 94 -1.7 28.9 0
02:36 1027 30.33 856 25.28 -0.7 30.8 94 -1.5 29.3 0
02:37 1027 30.33 856 25.28 -0.4 31.3 93 -1.4 29.4 0
02:38 1027 30.33 856 25.28 -0.3 31.6 92 -1.4 29.5 0
02:39 1027 30.33 856 25.28 -0 31.9 91 -1.3 29.6 0
02:40 1027 30.33 856 25.28 0.1 32.1 88 -1.7 29 0
02:41 1027 30.33 856 25.28 -0.1 31.9 87 -1.9 28.5 0
02:42 1027 30.33 856 25.28 -0.2 31.6 88 -2 28.5 0
02:43 1027 30.33 856 25.28 -0.3 31.5 89 -2 28.5 0
02:44 1027 30.33 856 25.28 -0.3 31.4 90 -1.9 28.6 0
02:45 1027 30.33 856 25.28 -0.3 31.4 90 -1.8 28.7 0
02:46 1027 30.33 856 25.28 -0.3 31.4 90 -1.7 28.9 0
02:47 1027 30.33 856 25.28 -0.2 31.6 90 -1.6 29.1 0
02:48 1027 30.33 856 25.28 -0.2 31.7 89 -1.8 28.8 0
02:49 1027 30.33 856 25.28 -0.2 31.6 88 -2 28.5 0
02:50 1027 30.33 856 25.28 -0.3 31.4 89 -2 28.4 0
02:51 1027 30.33 856 25.28 -0.5 31.2 88 -2.1 28.1 0
02:52 1027 30.33 856 25.28 -0.6 30.9 88 -2.3 27.9 0
02:53 1027 30.33 856 25.28 -0.7 30.7 89 -2.3 27.8 0
02:54 1027 30.33 856 25.28 -0.8 30.6 90 -2.2 28 0
02:55 1027 30.33 856 25.28 -0.8 30.6 91 -2.1 28.2 0
02:56 1027 30.33 856 25.28 -0.7 30.7 91 -2 28.4 0
02:57 1027 30.33 856 25.28 -0.7 30.7 90 -2.1 28.2 0
02:58 1027 30.33 856 25.28 -0.8 30.5 89 -2.4 27.7 0
02:59 1027 30.33 856 25.28 -1 30.3 90 -2.5 27.6 0
03:00 1027 30.33 856 25.28 -1 30.2 92 -2.2 28.1 0
03:01 1026 30.3 856 25.28 -0.8 30.6 91 -2.1 28.2 0
03:02 1026 30.3 856 25.28 -0.6 30.8 89 -2.2 28 0
03:03 1026 30.3 856 25.28 -0.6 31 89 -2.2 28 0
03:04 1026 30.3 856 25.28 -0.5 31 89 -2.1 28.1 0
03:05 1026 30.3 856 25.28 -0.4 31.2 90 -1.9 28.5 0
03:06 1027 30.33 856 25.28 -0.2 31.6 90 -1.7 29 0
03:07 1027 30.33 856 25.28 0.1 32.1 88 -1.6 29 0
03:08 1027 30.33 856 25.28 0.2 32.4 87 -1.6 29.1 0
03:09 1027 30.33 856 25.28 0.4 32.7 87 -1.5 29.2 0
03:10 1027 30.33 856 25.28 0.5 33 86 -1.6 29.1 0
03:11 1027 30.33 856 25.28 0.6 33.1 85 -1.7 29 0
03:12 1027 30.33 856 25.28 0.5 32.9 84 -1.8 28.7 0
03:13 1027 30.33 856 25.28 0.5 32.8 84 -2 28.5 0
03:14 1027 30.33 856 25.28 0.3 32.6 85 -1.9 28.6 0
03:15 1026 30.3 856 25.28 0.3 32.5 85 -1.9 28.5 0
03:16 1026 30.3 856 25.28 0.3 32.5 85 -1.9 28.5 0
03:17 1026 30.3 856 25.28 0.3 32.5 85 -2 28.5 0
03:18 1026 30.3 856 25.28 0.2 32.4 85 -2 28.4 0
03:19 1026 30.3 856 25.28 0.2 32.3 85 -2.1 28.2 0
03:20 1026 30.3 856 25.28 0 32.1 85 -2.2 28.1 0
03:21 1026 30.3 856 25.28 0 32 86 -2.1 28.3 0
03:22 1026 30.3 856 25.28 0.1 32.1 86 -2.1 28.3 0
03:23 1026 30.3 856 25.28 0.2 32.3 86 -1.9 28.6 0
03:24 1026 30.3 856 25.28 0.4 32.8 85 -1.8 28.8 0
03:25 1026 30.3 856 25.28 0.6 33.1 84 -1.8 28.8 0
03:26 1026 30.3 856 25.28 0.7 33.2 84 -1.8 28.8 0
03:27 1026 30.3 856 25.28 0.7 33.3 84 -1.7 28.9 0
03:28 1026 30.3 856 25.28 0.8 33.4 83 -1.7 28.9 0
03:29 1026 30.3 856 25.28 0.7 33.3 84 -1.7 28.9 0
03:30 1026 30.3 856 25.28 0.8 33.4 84 -1.6 29.1 0
03:31 1026 30.3 856 25.28 0.8 33.5 84 -1.6 29.1 0
03:32 1026 30.3 856 25.28 0.9 33.6 84 -1.5 29.3 0
03:33 1026 30.3 856 25.28 1.1 33.9 83 -1.5 29.3 0
03:34 1026 30.3 856 25.28 1.2 34.2 82 -1.6 29.2 0
03:35 1026 30.3 855 25.25 1.2 34.2 81 -1.7 29 0
03:36 1026 30.3 855 25.25 1.1 33.9 82 -1.6 29.1 0
03:37 1026 30.3 855 25.25 0.9 33.7 82 -1.8 28.8 0
03:38 1026 30.3 855 25.25 0.7 33.3 83 -1.9 28.6 0
03:39 1026 30.3 855 25.25 0.5 33 83 -2.1 28.2 0
03:40 1026 30.3 855 25.25 0.2 32.3 82 -2.6 27.4 0
03:41 1026 30.3 855 25.25 -0.3 31.5 84 -2.7 27.1 0
03:42 1026 30.3 855 25.25 -0.7 30.7 86 -2.7 27.1 0
03:43 1026 30.3 855 25.25 -0.9 30.4 88 -2.7 27.2 0
03:44 1026 30.3 855 25.25 -1 30.1 89 -2.7 27.2 0
03:45 1026 30.3 855 25.25 -1.2 29.9 88 -2.9 26.7 0
03:46 1026 30.3 855 25.25 -1.3 29.7 88 -3 26.6 0
03:47 1026 30.3 855 25.25 -1.4 29.4 89 -3.1 26.4 0
03:48 1026 30.3 855 25.25 -1.5 29.2 90 -2.9 26.8 0
03:49 1026 30.3 855 25.25 -1.6 29.2 91 -2.8 27 0
03:50 1026 30.3 855 25.25 -1.5 29.4 91 -2.8 27 0
03:51 1026 30.3 855 25.25 -1.4 29.4 90 -2.8 26.9 0
03:52 1026 30.3 855 25.25 -1.5 29.4 91 -2.8 27 0
03:53 1026 30.3 855 25.25 -1.4 29.5 91 -2.7 27.1 0
03:54 1026 30.3 855 25.25 -1.4 29.5 90 -2.8 27 0
03:55 1026 30.3 855 25.25 -1.4 29.4 90 -2.8 26.9 0
03:56 1026 30.3 855 25.25 -1.4 29.4 90 -2.8 26.9 0
03:57 1026 30.3 855 25.25 -1.5 29.3 91 -2.9 26.8 0
03:58 1026 30.3 855 25.25 -1.5 29.3 91 -2.8 26.9 0
03:59 1026 30.3 855 25.25 -1.5 29.2 92 -2.7 27.1 0
04:00 1026 30.3 855 25.25 -1.5 29.3 92 -2.6 27.3 0
04:01 1026 30.3 855 25.25 -1.4 29.5 93 -2.4 27.6 0
04:02 1026 30.3 855 25.25 -1.2 29.8 92 -2.4 27.6 0
04:03 1026 30.3 855 25.25 -1.2 29.9 91 -2.5 27.4 0
04:04 1026 30.3 855 25.25 -1.2 29.8 90 -2.6 27.3 0
04:05 1026 30.3 855 25.25 -1.2 29.8 91 -2.5 27.4 0
04:06 1026 30.3 855 25.25 -1.3 29.7 91 -2.5 27.4 0
04:07 1026 30.3 855 25.25 -1.2 29.8 92 -2.4 27.7 0
04:08 1026 30.3 855 25.25 -1.2 29.9 92 -2.3 27.8 0
04:09 1026 30.3 855 25.25 -1.1 30 92 -2.3 27.8 0
04:10 1026 30.3 855 25.25 -1.1 30.1 91 -2.4 27.7 0
04:11 1026 30.3 855 25.25 -1 30.1 90 -2.4 27.6 0
04:12 1026 30.3 855 25.25 -1 30.2 90 -2.4 27.7 0
04:13 1026 30.3 855 25.25 -1.1 30.1 90 -2.5 27.5 0
04:14 1026 30.3 855 25.25 -1.1 30 90 -2.6 27.4 0
04:15 1026 30.3 855 25.25 -1.2 29.8 90 -2.7 27.2 0
04:16 1026 30.3 855 25.25 -1.3 29.7 89 -2.9 26.8 0
04:17 1026 30.3 855 25.25 -1.5 29.4 89 -3 26.6 0
04:18 1026 30.3 855 25.25 -1.6 29.1 90 -3 26.7 0
04:19 1026 30.3 855 25.25 -1.7 29 90 -3.1 26.5 0
04:20 1026 30.3 855 25.25 -1.8 28.8 91 -3.1 26.4 0
04:21 1026 30.3 855 25.25 -1.9 28.6 91 -3.2 26.3 0
04:22 1026 30.3 855 25.25 -1.9 28.5 91 -3.2 26.3 0
04:23 1026 30.3 855 25.25 -1.9 28.5 93 -2.9 26.7 0
04:24 1026 30.3 855 25.25 -1.8 28.7 93 -2.8 27 0
04:25 1026 30.3 855 25.25 -1.7 28.9 93 -2.7 27.1 0
04:26 1026 30.3 855 25.25 -1.6 29 94 -2.5 27.5 0
04:27 1026 30.3 855 25.25 -1.4 29.4 94 -2.2 28 0
04:28 1026 30.3 855 25.25 -1.3 29.7 94 -2.2 28.1 0
04:29 1026 30.3 855 25.25 -1 30.2 94 -1.9 28.6 0
04:30 1026 30.3 855 25.25 -0.8 30.5 91 -2.1 28.2 0
04:31 1026 30.3 855 25.25 -0.8 30.5 90 -2.2 28 0
04:32 1026 30.3 855 25.25 -0.9 30.4 91 -2.3 27.9 0
04:33 1026 30.3 855 25.25 -1 30.3 90 -2.4 27.6 0
04:34 1026 30.3 855 25.25 -1.1 30 91 -2.4 27.6 0
04:35 1026 30.3 855 25.25 -1.1 29.9 90 -2.5 27.4 0
04:36 1026 30.3 855 25.25 -1.2 29.9 90 -2.6 27.3 0
04:37 1026 30.3 855 25.25 -1.3 29.7 90 -2.7 27.2 0
04:38 1026 30.3 855 25.25 -1.4 29.5 91 -2.6 27.3 0
04:39 1026 30.3 855 25.25 -1.4 29.5 92 -2.5 27.6 0
04:40 1026 30.3 855 25.25 -1.3 29.7 93 -2.3 27.8 0
04:41 1026 30.3 855 25.25 -1.2 29.9 92 -2.3 27.8 0
04:42 1026 30.3 855 25.25 -1.1 30.1 92 -2.2 28 0
04:43 1026 30.3 855 25.25 -1 30.2 91 -2.2 28 0
04:44 1025 30.27 855 25.25 -0.9 30.4 92 -2 28.3 0
04:45 1025 30.27 855 25.25 -0.8 30.5 91 -2.2 28.1 0
04:46 1025 30.27 855 25.25 -0.7 30.7 91 -2.1 28.3 0
04:47 1025 30.27 855 25.25 -0.7 30.7 90 -2.2 28 0
04:48 1025 30.27 855 25.25 -0.7 30.7 89 -2.3 27.9 0
04:49 1025 30.27 855 25.25 -0.7 30.7 90 -2.2 28 0
04:50 1025 30.27 855 25.25 -0.8 30.7 90 -2.2 28.1 0
04:51 1025 30.27 855 25.25 -0.8 30.6 89 -2.4 27.7 0
04:52 1025 30.27 855 25.25 -0.8 30.6 90 -2.3 27.9 0
04:53 1025 30.27 855 25.25 -0.8 30.6 90 -2.3 27.9 0
04:54 1025 30.27 855 25.25 -0.8 30.6 89 -2.4 27.7 0
04:55 1025 30.27 855 25.25 -0.8 30.5 90 -2.2 28 0
04:56 1025 30.27 855 25.25 -0.8 30.5 90 -2.2 28 0
04:57 1025 30.27 855 25.25 -0.7 30.7 91 -2 28.3 0
04:58 1025 30.27 855 25.25 -0.6 30.8 91 -1.9 28.5 0
04:59 1025 30.27 855 25.25 -0.5 31.1 90 -1.9 28.5 0
05:00 1025 30.27 855 25.25 -0.4 31.2 90 -2 28.5 0
05:01 1025 30.27 855 25.25 -0.4 31.2 88 -2.1 28.2 0
05:02 1025 30.27 854 25.22 -0.5 31.2 89 -2.1 28.3 0
05:03 1025 30.27 854 25.22 -0.5 31.1 88 -2.2 28 0
05:04 1025 30.27 854 25.22 -0.5 31 89 -2.1 28.2 0
05:05 1025 30.27 854 25.22 -0.5 31.1 89 -2 28.4 0
05:06 1025 30.27 854 25.22 -0.4 31.3 90 -1.9 28.5 0
05:07 1025 30.27 854 25.22 -0.3 31.5 89 -1.8 28.7 0
05:08 1025 30.27 854 25.22 -0.1 31.7 88 -1.9 28.5 0
05:09 1025 30.27 854 25.22 -0.2 31.6 88 -1.9 28.5 0
05:10 1025 30.27 854 25.22 -0.2 31.6 88 -1.9 28.5 0
05:11 1025 30.27 854 25.22 -0.2 31.6 88 -2 28.4 0
05:12 1025 30.27 854 25.22 -0.3 31.5 89 -1.8 28.7 0
05:13 1025 30.27 854 25.22 -0.2 31.7 90 -1.7 29 0
05:14 1025 30.27 854 25.22 -0 31.9 88 -1.8 28.7 0
05:15 1025 30.27 854 25.22 -0.1 31.8 87 -2 28.4 0
05:16 1025 30.27 854 25.22 -0.2 31.7 87 -2 28.4 0
05:17 1025 30.27 854 25.22 -0.3 31.4 87 -2.2 28 0
05:18 1025 30.27 854 25.22 -0.5 31.1 87 -2.4 27.6 0
05:19 1025 30.27 854 25.22 -0.7 30.8 88 -2.4 27.7 0
05:20 1025 30.27 854 25.22 -0.8 30.6 89 -2.3 27.9 0
05:21 1025 30.27 854 25.22 -0.8 30.5 88 -2.5 27.4 0
05:22 1025 30.27 854 25.22 -1 30.2 88 -2.7 27.2 0
05:23 1025 30.27 854 25.22 -1.2 29.9 88 -2.9 26.9 0
05:24 1025 30.27 854 25.22 -1.3 29.6 88 -3.1 26.5 0
05:25 1025 30.27 854 25.22 -1.6 29.2 89 -3.1 26.4 0
05:26 1025 30.27 854 25.22 -1.7 28.9 91 -3.1 26.5 0
05:27 1025 30.27 854 25.22 -1.7 29 91 -2.9 26.7 0
05:28 1025 30.27 854 25.22 -1.6 29 92 -2.8 27 0
05:29 1025 30.27 854 25.22 -1.5 29.2 93 -2.6 27.3 0
05:30 1025 30.27 854 25.22 -1.4 29.5 92 -2.5 27.6 0
05:31 1025 30.27 854 25.22 -1.3 29.7 91 -2.5 27.5 0
05:32 1025 30.27 854 25.22 -1.2 29.9 90 -2.6 27.3 0
05:33 1025 30.27 854 25.22 -1.2 29.8 89 -2.8 26.9 0
05:34 1025 30.27 854 25.22 -1.3 29.6 89 -2.9 26.9 0
05:35 1025 30.27 854 25.22 -1.4 29.6 91 -2.7 27.1 0
05:36 1025 30.27 854 25.22 -1.4 29.4 89 -3.1 26.5 0
05:37 1025 30.27 854 25.22 -1.6 29.1 88 -3.3 26.1 0
05:38 1025 30.27 854 25.22 -1.8 28.7 89 -3.3 26 0
05:39 1025 30.27 854 25.22 -1.9 28.5 90 -3.4 25.9 0
05:40 1025 30.27 854 25.22 -2.1 28.3 90 -3.5 25.7 0
05:41 1025 30.27 854 25.22 -2.2 28.1 90 -3.6 25.5 0
05:42 1025 30.27 854 25.22 -2.3 27.9 92 -3.5 25.8 0
05:43 1025 30.27 854 25.22 -2.3 27.9 93 -3.2 26.2 0
05:44 1025 30.27 854 25.22 -2.1 28.2 94 -3 26.7 0
05:45 1025 30.27 854 25.22 -1.9 28.6 95 -2.7 27.2 0
05:46 1025 30.27 854 25.22 -1.6 29.1 94 -2.5 27.6 0
05:47 1025 30.27 854 25.22 -1.4 29.6 92 -2.5 27.6 0
05:48 1025 30.27 854 25.22 -1.2 29.8 90 -2.7 27.2 0
05:49 1025 30.27 854 25.22 -1.2 29.8 89 -2.8 27 0
05:50 1025 30.27 854 25.22 -1.3 29.7 89 -2.8 27 0
05:51 1025 30.27 854 25.22 -1.3 29.6 90 -2.7 27.1 0
05:52 1025 30.27 854 25.22 -1.3 29.7 91 -2.5 27.5 0
05:53 1025 30.27 854 25.22 -1.1 30 91 -2.4 27.7 0
05:54 1025 30.27 854 25.22 -1 30.2 89 -2.6 27.3 0
05:55 1025 30.27 854 25.22 -1 30.1 88 -2.7 27.1 0
05:56 1025 30.27 854 25.22 -1.1 30.1 88 -2.8 27 0
05:57 1025 30.27 854 25.22 -1.1 30.1 88 -2.8 27 0
05:58 1025 30.27 854 25.22 -1.1 30 87 -3 26.6 0
05:59 1025 30.27 854 25.22 -1.2 29.8 88 -3 26.5 0
06:00 1025 30.27 854 25.22 -1.4 29.5 87 -3.2 26.2 0
06:01 1025 30.27 854 25.22 -1.5 29.3 87 -3.4 25.9 0
06:02 1025 30.27 854 25.22 -1.7 28.9 88 -3.4 25.8 0
06:03 1025 30.27 854 25.22 -1.8 28.7 89 -3.3 26 0
06:04 1025 30.27 854 25.22 -1.9 28.6 90 -3.3 26.1 0
06:05 1025 30.27 854 25.22 -1.8 28.7 90 -3.3 26.1 0
06:06 1025 30.27 854 25.22 -1.9 28.6 91 -3.2 26.3 0
06:07 1025 30.27 854 25.22 -1.8 28.7 91 -3 26.5 0
06:08 1025 30.27 854 25.22 -1.7 29 91 -3 26.6 0
06:09 1025 30.27 854 25.22 -1.6 29.1 91 -3 26.7 0
06:10 1025 30.27 854 25.22 -1.6 29.2 91 -2.8 26.9 0
06:11 1025 30.27 854 25.22 -1.5 29.4 91 -2.8 26.9 0
06:12 1025 30.27 854 25.22 -1.4 29.4 90 -2.8 27 0
06:13 1025 30.27 854 25.22 -1.4 29.6 90 -2.8 27 0
06:14 1025 30.27 854 25.22 -1.3 29.7 90 -2.7 27.2 0
06:15 1025 30.27 854 25.22 -1.3 29.6 89 -2.9 26.8 0
06:16 1025 30.27 854 25.22 -1.4 29.5 89 -3 26.7 0
06:17 1025 30.27 854 25.22 -1.5 29.3 89 -3.1 26.4 0
06:18 1025 30.27 854 25.22 -1.6 29.2 90 -3 26.5 0
06:19 1025 30.27 854 25.22 -1.6 29 89 -3.2 26.2 0
06:20 1025 30.27 854 25.22 -1.8 28.8 89 -3.4 26 0
06:21 1025 30.27 854 25.22 -1.9 28.5 90 -3.3 26.1 0
06:22 1025 30.27 854 25.22 -2 28.4 91 -3.3 26.1 0
06:23 1025 30.27 854 25.22 -2 28.3 91 -3.3 26 0
06:24 1025 30.27 854 25.22 -2.1 28.2 91 -3.4 25.9 0
06:25 1025 30.27 854 25.22 -2.1 28.2 93 -3.2 26.3 0
06:26 1025 30.27 854 25.22 -2 28.4 92 -3.2 26.3 0
06:27 1025 30.27 854 25.22 -2 28.4 91 -3.3 26.1 0
06:28 1025 30.27 854 25.22 -2.1 28.3 91 -3.3 26 0
06:29 1025 30.27 854 25.22 -2.1 28.2 92 -3.3 26.1 0
06:30 1025 30.27 854 25.22 -2.1 28.2 92 -3.3 26 0
06:31 1025 30.27 854 25.22 -2.2 28.1 91 -3.4 25.9 0
06:32 1025 30.27 854 25.22 -2.2 28.1 92 -3.4 25.9 0
06:33 1025 30.27 854 25.22 -2.2 28.1 92 -3.3 26 0
06:34 1025 30.27 854 25.22 -2.2 28 92 -3.4 26 0
06:35 1025 30.27 854 25.22 -2.2 28 92 -3.4 25.9 0
06:36 1025 30.27 854 25.22 -2.3 27.8 91 -3.6 25.5 0
06:37 1025 30.27 854 25.22 -2.5 27.5 91 -3.7 25.3 0
06:38 1025 30.27 854 25.22 -2.5 27.5 93 -3.5 25.7 0
06:39 1025 30.27 854 25.22 -2.6 27.4 92 -3.6 25.5 0
06:40 1025 30.27 854 25.22 -2.5 27.5 93 -3.5 25.7 0
06:41 1025 30.27 854 25.22 -2.5 27.5 92 -3.6 25.5 0
06:42 1025 30.27 854 25.22 -2.6 27.3 91 -3.9 25 0
06:43 1025 30.27 854 25.22 -2.7 27.1 91 -4.1 24.7 0
06:44 1025 30.27 854 25.22 -2.9 26.8 91 -4.2 24.5 0
06:45 1025 30.27 854 25.22 -3 26.7 91 -4.2 24.5 0
06:46 1025 30.27 854 25.22 -3 26.5 92 -4.2 24.5 0
06:47 1025 30.27 854 25.22 -3.1 26.4 93 -4.1 24.6 0
06:48 1025 30.27 854 25.22 -3 26.6 93 -4 24.8 0
06:49 1025 30.27 854 25.22 -3.1 26.5 92 -4.2 24.4 0
06:50 1025 30.27 854 25.22 -3.1 26.4 92 -4.2 24.5 0
06:51 1025 30.27 854 25.22 -3.1 26.4 93 -4.1 24.6 0
06:52 1024 30.24 854 25.22 -3.1 26.4 93 -4.1 24.6 0
06:53 1024 30.24 854 25.22 -3.1 26.5 93 -4 24.7 0
06:54 1024 30.24 854 25.22 -3 26.5 93 -3.9 24.9 0
06:55 1024 30.24 854 25.22 -3 26.6 93 -4 24.8 0
06:56 1024 30.24 854 25.22 -3 26.6 93 -3.9 24.9 0
06:57 1024 30.24 854 25.22 -3 26.7 91 -4.2 24.5 0
06:58 1024 30.24 854 25.22 -3.1 26.4 91 -4.4 24.1 0
06:59 1024 30.24 854 25.22 -3.2 26.3 91 -4.4 24 0
07:00 1024 30.24 854 25.22 -3.3 26.1 92 -4.4 24 0
07:01 1024 30.24 854 25.22 -3.3 26.1 92 -4.4 24 0
07:02 1024 30.24 854 25.22 -3.3 26.1 92 -4.4 24.2 0
07:03 1024 30.24 854 25.22 -3.3 26 93 -4.3 24.2 0
07:04 1024 30.24 854 25.22 -3.2 26.3 94 -4 24.8 0
07:05 1024 30.24 854 25.22 -3.1 26.5 93 -4 24.8 0
07:06 1024 30.24 854 25.22 -3 26.6 93 -4 24.8 0
07:07 1024 30.24 854 25.22 -3 26.6 93 -4 24.8 0
07:08 1024 30.24 854 25.22 -2.9 26.7 93 -3.9 24.9 0
07:09 1024 30.24 854 25.22 -2.9 26.8 93 -3.9 25 0
07:10 1024 30.24 854 25.22 -2.9 26.8 93 -3.8 25.1 0
07:11 1024 30.24 854 25.22 -2.8 26.9 94 -3.7 25.4 0
07:12 1024 30.24 854 25.22 -2.7 27.2 94 -3.5 25.7 0
07:13 1024 30.24 854 25.22 -2.5 27.5 94 -3.3 26 0
07:14 1024 30.24 854 25.22 -2.4 27.7 94 -3.3 26.1 0
07:15 1024 30.24 854 25.22 -2.2 28 94 -3 26.6 0
07:16 1024 30.24 854 25.22 -2 28.3 93 -3 26.6 0
07:17 1024 30.24 854 25.22 -1.9 28.6 92 -3 26.7 0
07:18 1024 30.24 854 25.22 -1.8 28.8 92 -2.9 26.8 0
07:19 1024 30.24 854 25.22 -1.7 29 91 -2.9 26.7 0
07:20 1024 30.24 853 25.19 -1.6 29.1 91 -2.9 26.7 0
07:21 1024 30.24 853 25.19 -1.6 29.1 92 -2.8 27 0
07:22 1024 30.24 853 25.19 -1.6 29.2 91 -2.9 26.8 0
07:23 1024 30.24 853 25.19 -1.6 29.2 92 -2.8 27 0
07:24 1024 30.24 853 25.19 -1.6 29.2 92 -2.7 27.1 0
07:25 1024 30.24 853 25.19 -1.5 29.3 92 -2.7 27.2 0
07:26 1024 30.24 853 25.19 -1.5 29.3 93 -2.6 27.4 0
07:27 1024 30.24 853 25.19 -1.4 29.6 93 -2.4 27.7 0
07:28 1024 30.24 853 25.19 -1.3 29.7 91 -2.6 27.4 0
07:29 1024 30.24 853 25.19 -1.4 29.5 89 -3 26.7 0
07:30 1024 30.24 853 25.19 -1.5 29.3 90 -2.9 26.8 0
07:31 1024 30.24 853 25.19 -1.5 29.2 92 -2.7 27.2 0
07:32 1024 30.24 853 25.19 -1.5 29.4 91 -2.7 27.2 0
07:33 1024 30.24 853 25.19 -1.4 29.5 92 -2.5 27.4 0
07:34 1024 30.24 853 25.19 -1.1 30 92 -2.3 27.8 0
07:35 1024 30.24 853 25.19 -1.1 30.1 90 -2.5 27.4 0
07:36 1024 30.24 853 25.19 -1 30.2 91 -2.3 27.9 0
07:37 1024 30.24 853 25.19 -0.9 30.3 89 -2.5 27.5 0
07:38 1024 30.24 853 25.19 -0.9 30.3 89 -2.5 27.6 0
07:39 1024 30.24 853 25.19 -0.9 30.3 90 -2.3 27.8 0
07:40 1024 30.24 853 25.19 -0.8 30.6 89 -2.3 27.9 0
07:41 1024 30.24 853 25.19 -0.7 30.7 88 -2.4 27.7 0
07:42 1024 30.24 853 25.19 -0.8 30.6 88 -2.6 27.3 0
07:43 1024 30.24 853 25.19 -0.8 30.5 88 -2.5 27.5 0
07:44 1024 30.24 853 25.19 -0.9 30.4 89 -2.5 27.6 0
07:45 1024 30.24 853 25.19 -0.9 30.3 89 -2.6 27.4 0
07:46 1024 30.24 853 25.19 -1 30.3 89 -2.5 27.5 0
07:47 1024 30.24 853 25.19 -1 30.2 90 -2.5 27.6 0
07:48 1024 30.24 853 25.19 -1 30.2 90 -2.5 27.6 0
07:49 1024 30.24 853 25.19 -1 30.2 91 -2.3 27.8 0
07:50 1024 30.24 853 25.19 -0.9 30.4 91 -2.2 28 0
07:51 1024 30.24 853 25.19 -0.8 30.5 90 -2.2 28.1 0
07:52 1024 30.24 853 25.19 -0.7 30.7 90 -2.2 28 0
07:53 1024 30.24 853 25.19 -0.7 30.8 90 -2.1 28.2 0
07:54 1024 30.24 853 25.19 -0.6 30.9 89 -2.2 28.1 0
07:55 1024 30.24 853 25.19 -0.6 31 89 -2.2 28 0
07:56 1024 30.24 853 25.19 -0.5 31.1 89 -2.1 28.1 0
07:57 1024 30.24 853 25.19 -0.4 31.2 89 -2.1 28.3 0
07:58 1024 30.24 853 25.19 -0.3 31.4 87 -2.3 27.9 0
07:59 1024 30.24 853 25.19 -0.4 31.3 86 -2.4 27.7 0
08:00 1024 30.24 853 25.19 -0.5 31.2 87 -2.3 27.9 0
08:01 1024 30.24 853 25.19 -0.5 31.2 88 -2.3 27.9 0
08:02 1024 30.24 853 25.19 -0.5 31.1 88 -2.3 27.9 0
08:03 1024 30.24 853 25.19 -0.5 31.1 88 -2.2 28 0
08:04 1024 30.24 853 25.19 -0.4 31.3 89 -2 28.5 0
08:05 1024 30.24 853 25.19 -0.2 31.6 86 -2.2 28 0
08:06 1024 30.24 853 25.19 -0.2 31.6 86 -2.4 27.7 0
08:07 1024 30.24 853 25.19 -0.2 31.6 86 -2.2 28 0
08:08 1024 30.24 853 25.19 -0.2 31.6 86 -2.2 28 0
08:09 1024 30.24 853 25.19 -0.2 31.7 86 -2.3 27.9 0
08:10 1024 30.24 853 25.19 -0.1 31.8 86 -2.2 28 0
08:11 1024 30.24 853 25.19 -0.1 31.9 86 -2.2 28.1 0
08:12 1024 30.24 853 25.19 -0.1 31.8 84 -2.5 27.5 0
08:13 1024 30.24 853 25.19 -0.2 31.6 87 -2.2 28.1 0
08:14 1024 30.24 853 25.19 -0.1 31.8 86 -2.3 27.9 0
08:15 1024 30.24 853 25.19 -0 32 86 -2 28.4 0
08:16 1024 30.24 853 25.19 0.2 32.3 85 -2.1 28.3 0
08:17 1024 30.24 853 25.19 0.3 32.5 84 -2.1 28.2 0
08:18 1024 30.24 853 25.19 0.3 32.6 84 -2 28.3 0
08:19 1024 30.24 853 25.19 0.3 32.5 84 -2 28.3 0
08:20 1024 30.24 853 25.19 0.3 32.5 83 -2.2 28 0
08:21 1024 30.24 853 25.19 0.2 32.3 84 -2.1 28.2 0
08:22 1024 30.24 853 25.19 0.1 32.3 85 -2 28.4 0
08:23 1024 30.24 853 25.19 0.1 32.2 86 -1.9 28.6 0
08:24 1024 30.24 853 25.19 0.2 32.3 85 -2 28.5 0
08:25 1024 30.24 853 25.19 0.3 32.5 85 -2 28.4 0
08:26 1024 30.24 853 25.19 0.5 32.9 83 -2 28.4 0
08:27 1024 30.24 853 25.19 0.6 33.2 83 -2 28.4 0
08:28 1024 30.24 853 25.19 0.8 33.4 82 -1.9 28.5 0
08:29 1024 30.24 853 25.19 1 33.8 80 -2 28.3 0
08:30 1024 30.24 853 25.19 1.2 34.2 79 -1.9 28.5 0
08:31 1024 30.24 853 25.19 1.3 34.4 79 -1.9 28.6 0
08:32 1024 30.24 853 25.19 1.4 34.5 79 -1.9 28.6 0
08:33 1024 30.24 853 25.19 1.6 34.9 78 -1.9 28.6 0
08:34 1024 30.24 853 25.19 1.8 35.3 76 -1.9 28.6 0
08:35 1024 30.24 853 25.19 2.1 35.7 75 -1.9 28.6 0
08:36 1024 30.24 853 25.19 2.2 36 75 -1.8 28.7 0
08:37 1024 30.24 853 25.19 2.3 36.2 74 -1.8 28.8 0
08:38 1024 30.24 853 25.19 2.4 36.3 73 -1.9 28.6 0
08:39 1024 30.24 853 25.19 2.8 37 72 -1.9 28.6 0
08:40 1024 30.24 853 25.19 3 37.4 71 -1.8 28.8 0
08:41 1024 30.24 853 25.19 3.1 37.6 71 -1.6 29.1 0
08:42 1024 30.24 853 25.19 3.1 37.5 72 -1.6 29.2 0
08:43 1024 30.24 853 25.19 3.1 37.6 72 -1.5 29.4 0
08:44 1024 30.24 853 25.19 3.1 37.6 73 -1.3 29.7 0
08:45 1024 30.24 854 25.22 3.2 37.7 73 -1.3 29.7 0
08:46 1024 30.24 854 25.22 3.3 37.9 73 -1.2 29.9 0
08:47 1024 30.24 854 25.22 3.4 38 73 -1.1 30.1 0
08:48 1024 30.24 854 25.22 3.3 38 73 -1 30.2 0
08:49 1025 30.27 854 25.22 3.3 37.9 74 -0.9 30.4 0
08:50 1025 30.27 854 25.22 3.2 37.8 75 -0.7 30.7 0
08:51 1025 30.27 854 25.22 3.1 37.6 76 -0.8 30.6 0
08:52 1025 30.27 854 25.22 3 37.3 77 -0.8 30.6 0
08:53 1025 30.27 854 25.22 2.9 37.2 76 -0.9 30.4 0
08:54 1025 30.27 854 25.22 2.9 37.2 77 -0.8 30.6 0
08:55 1025 30.27 854 25.22 3 37.4 77 -0.6 30.9 0
08:56 1025 30.27 854 25.22 3.2 37.8 77 -0.5 31.2 0
08:57 1025 30.27 854 25.22 3.4 38.2 75 -0.5 31 0
08:58 1025 30.27 854 25.22 3.6 38.6 74 -0.6 31 0
08:59 1025 30.27 854 25.22 3.8 38.8 74 -0.4 31.3 0
09:00 1025 30.27 854 25.22 3.8 38.8 75 -0.2 31.6 0
09:01 1025 30.27 854 25.22 3.6 38.5 75 -0.3 31.4 0
09:02 1025 30.27 854 25.22 3.3 37.9 76 -0.5 31 0
09:03 1025 30.27 854 25.22 2.8 37 78 -0.7 30.8 0
09:04 1025 30.27 854 25.22 2.3 36.1 81 -0.7 30.8 0
09:05 1025 30.27 854 25.22 2 35.6 82 -0.7 30.7 0
09:06 1025 30.27 854 25.22 1.7 35.1 83 -0.9 30.4 0
09:07 1025 30.27 854 25.22 1.6 34.9 84 -0.9 30.4 0
09:08 1025 30.27 854 25.22 1.5 34.6 85 -0.8 30.6 0
09:09 1025 30.27 854 25.22 1.4 34.5 86 -0.7 30.8 0
09:10 1025 30.27 854 25.22 1.4 34.6 86 -0.7 30.7 0
09:11 1025 30.27 854 25.22 1.6 34.9 85 -0.7 30.8 0
09:12 1025 30.27 854 25.22 1.7 35 85 -0.6 30.8 0
09:13 1025 30.27 854 25.22 1.8 35.2 85 -0.5 31.1 0
09:14 1025 30.27 854 25.22 1.8 35.2 84 -0.6 31 0
09:15 1025 30.27 854 25.22 1.9 35.5 83 -0.7 30.8 0
09:16 1025 30.27 854 25.22 2.1 35.8 82 -0.6 30.8 0
09:17 1025 30.27 854 25.22 2.1 35.8 83 -0.5 31.1 0
09:18 1025 30.27 854 25.22 2.2 35.9 84 -0.3 31.5 0
09:19 1025 30.27 854 25.22 2.2 35.9 83 -0.4 31.3 0
09:20 1025 30.27 854 25.22 2.1 35.8 83 -0.5 31.2 0
09:21 1025 30.27 854 25.22 2.2 35.9 83 -0.4 31.3 0
09:22 1025 30.27 854 25.22 2.2 36 83 -0.3 31.5 0
09:23 1025 30.27 854 25.22 2.3 36.1 84 -0.2 31.7 0
09:24 1025 30.27 854 25.22 2.3 36.2 83 -0.2 31.6 0
09:25 1025 30.27 854 25.22 2.4 36.2 84 -0.1 31.8 0
09:26 1025 30.27 854 25.22 2.4 36.3 84 -0.1 31.9 0
09:27 1025 30.27 854 25.22 2.4 36.3 84 -0 32 0
09:28 1025 30.27 855 25.25 2.4 36.3 84 -0.1 31.9 0
09:29 1025 30.27 855 25.25 2.4 36.3 83 -0.2 31.7 0
09:30 1025 30.27 855 25.25 2.4 36.4 83 -0.1 31.8 0
09:31 1025 30.27 855 25.25 2.5 36.5 83 -0 32 0
09:32 1025 30.27 855 25.25 2.6 36.7 84 0.1 32.2 0
09:33 1025 30.27 855 25.25 2.7 36.8 83 0 32.1 0
09:34 1025 30.27 854 25.22 2.7 36.9 82 0 32.1 0
09:35 1025 30.27 854 25.22 2.8 37.1 82 -0 32 0
09:36 1025 30.27 854 25.22 2.9 37.3 81 -0.1 31.9 0
09:37 1025 30.27 854 25.22 3.1 37.5 81 0.2 32.3 0
09:38 1025 30.27 855 25.25 3.2 37.7 82 0.4 32.7 0
09:39 1025 30.27 855 25.25 3.2 37.7 81 0.2 32.3 0
09:40 1025 30.27 855 25.25 3.1 37.6 81 0.3 32.5 0
09:41 1025 30.27 855 25.25 3.2 37.7 81 0.3 32.6 0
09:42 1025 30.27 854 25.22 3.2 37.8 81 0.3 32.5 0
09:43 1025 30.27 855 25.25 3.2 37.8 81 0.2 32.4 0
09:44 1025 30.27 855 25.25 3.3 37.9 82 0.4 32.8 0
09:45 1025 30.27 855 25.25 3.3 38 82 0.5 32.8 0
09:46 1025 30.27 855 25.25 3.3 38 80 0.2 32.4 0
09:47 1025 30.27 855 25.25 3.4 38.1 80 0.3 32.5 0
09:48 1025 30.27 855 25.25 3.4 38.1 78 -0 31.9 0
09:49 1025 30.27 855 25.25 3.5 38.3 77 -0.1 31.9 0
09:50 1025 30.27 854 25.22 3.6 38.5 76 -0.2 31.7 0
09:51 1025 30.27 854 25.22 3.7 38.7 77 0.1 32.1 0
09:52 1025 30.27 855 25.25 3.9 38.9 77 0.1 32.2 0
09:53 1025 30.27 855 25.25 3.9 39 77 0.2 32.3 0
09:54 1025 30.27 855 25.25 3.9 39.1 77 0.3 32.5 0
09:55 1025 30.27 855 25.25 4 39.1 76 0.1 32.1 0
09:56 1025 30.27 855 25.25 4 39.2 75 0.1 32.1 0
09:57 1025 30.27 855 25.25 4 39.2 76 0.2 32.3 0
09:58 1025 30.27 855 25.25 4.1 39.4 76 0.3 32.5 0
09:59 1025 30.27 855 25.25 4.1 39.4 76 0.2 32.4 0
10:00 1025 30.27 855 25.25 4.3 39.7 75 0.3 32.5 0
10:01 1025 30.27 855 25.25 4.4 39.8 75 0.2 32.4 0
10:02 1025 30.27 855 25.25 4.4 40 74 0.2 32.4 0
10:03 1026 30.3 855 25.25 4.5 40.1 74 0.3 32.6 0
10:04 1026 30.3 855 25.25 4.5 40.2 72 -0.1 31.8 0
10:05 1026 30.3 855 25.25 4.6 40.2 72 0 32.1 0
10:06 1026 30.3 855 25.25 4.6 40.3 72 -0 31.9 0
10:07 1026 30.3 855 25.25 4.7 40.5 73 0.4 32.7 0
10:08 1026 30.3 855 25.25 4.9 40.8 74 0.6 33.1 0
10:09 1026 30.3 855 25.25 5.1 41.1 73 0.6 33.1 0
10:10 1026 30.3 855 25.25 5.2 41.4 72 0.5 33 0
10:11 1026 30.3 855 25.25 5.4 41.7 72 0.8 33.5 0
10:12 1026 30.3 855 25.25 5.5 41.9 72 0.9 33.6 0
10:13 1026 30.3 855 25.25 5.5 41.9 72 0.8 33.4 0
10:14 1026 30.3 855 25.25 5.5 41.9 72 0.8 33.5 0
10:15 1026 30.3 855 25.25 5.4 41.7 75 1.2 34.2 0
10:16 1026 30.3 855 25.25 5.4 41.7 71 0.5 33 0
10:17 1026 30.3 855 25.25 5.2 41.4 71 0.3 32.6 0
10:18 1026 30.3 855 25.25 5.2 41.4 72 0.6 33 0
10:19 1026 30.3 855 25.25 5.3 41.6 71 0.6 33 0
10:20 1026 30.3 855 25.25 5.4 41.7 72 0.7 33.3 0
10:21 1026 30.3 855 25.25 5.5 41.9 71 0.7 33.3 0
10:22 1026 30.3 855 25.25 5.7 42.3 66 -0.1 31.8 0
10:23 1026 30.3 855 25.25 5.8 42.4 66 -0.1 31.8 0
10:24 1026 30.3 855 25.25 5.9 42.5 65 -0.1 31.8 0
10:25 1026 30.3 855 25.25 5.9 42.6 64 -0.3 31.4 0
10:26 1026 30.3 855 25.25 5.9 42.5 65 -0.1 31.7 0
10:27 1026 30.3 855 25.25 5.8 42.5 66 0.1 32.1 0
10:28 1026 30.3 855 25.25 5.9 42.6 67 0.2 32.4 0
10:29 1026 30.3 855 25.25 6 42.7 67 0.3 32.6 0
10:30 1026 30.3 855 25.25 6 42.9 66 0.1 32.3 0
10:31 1026 30.3 855 25.25 6.1 43 68 0.6 33.1 0
10:32 1026 30.3 855 25.25 6.2 43.1 65 0.1 32.2 0
10:33 1026 30.3 855 25.25 6.3 43.3 65 0.1 32.2 0
10:34 1026 30.3 855 25.25 6.4 43.5 64 0.1 32.2 0
10:35 1026 30.3 855 25.25 6.5 43.7 65 0.4 32.7 0
10:36 1026 30.3 855 25.25 6.6 43.8 63 -0 32 0
10:37 1026 30.3 855 25.25 6.5 43.7 63 0 32 0
10:38 1026 30.3 855 25.25 6.4 43.5 65 0.2 32.4 0
10:39 1026 30.3 855 25.25 6.4 43.5 63 -0.1 31.9 0
10:40 1026 30.3 855 25.25 6.3 43.3 64 -0.1 31.9 0
10:41 1026 30.3 855 25.25 6.2 43.2 65 0.2 32.3 0
10:42 1026 30.3 855 25.25 6.2 43.1 65 0.1 32.3 0
10:43 1026 30.3 855 25.25 6.2 43.2 66 0.3 32.6 0
10:44 1026 30.3 855 25.25 6.2 43.2 66 0.4 32.8 0
10:45 1026 30.3 855 25.25 6.3 43.3 66 0.5 32.9 0
10:46 1026 30.3 855 25.25 6.4 43.4 66 0.5 32.8 0
10:47 1026 30.3 855 25.25 6.4 43.4 65 0.2 32.3 0
10:48 1026 30.3 855 25.25 6.4 43.5 66 0.4 32.8 0
10:49 1026 30.3 855 25.25 6.3 43.4 66 0.6 33 0
10:50 1026 30.3 855 25.25 6.4 43.5 65 0.3 32.5 0
10:51 1026 30.3 855 25.25 6.4 43.5 64 0.1 32.3 0
10:52 1026 30.3 855 25.25 6.4 43.4 66 0.4 32.7 0
10:53 1026 30.3 855 25.25 6.4 43.5 65 0.3 32.6 0
10:54 1026 30.3 855 25.25 6.4 43.5 65 0.3 32.5 0
10:55 1026 30.3 855 25.25 6.4 43.6 66 0.4 32.8 0
10:56 1026 30.3 855 25.25 6.5 43.7 67 0.8 33.5 0
10:57 1026 30.3 855 25.25 6.6 44 65 0.5 32.9 0
10:58 1026 30.3 855 25.25 6.8 44.3 64 0.4 32.8 0
10:59 1026 30.3 855 25.25 7 44.6 63 0.5 33 0
11:00 1026 30.3 855 25.25 7 44.7 63 0.5 33 0
11:01 1026 30.3 855 25.25 7 44.7 64 0.8 33.5 0
11:02 1026 30.3 855 25.25 7.2 44.9 64 0.8 33.4 0
11:03 1026 30.3 855 25.25 7.3 45.2 62 0.5 33 0
11:04 1026 30.3 855 25.25 7.6 45.6 60 0.3 32.5 0
11:05 1026 30.3 855 25.25 7.7 45.8 60 0.5 33 0
11:06 1026 30.3 855 25.25 7.9 46.2 62 1 33.8 0
11:07 1026 30.3 855 25.25 8.1 46.5 59 0.5 32.9 0
11:08 1026 30.3 855 25.25 8.1 46.6 60 0.9 33.6 0
11:09 1026 30.3 855 25.25 8.2 46.8 60 0.8 33.5 0
11:10 1026 30.3 855 25.25 8.3 46.9 60 1.1 34 0
11:11 1026 30.3 855 25.25 8.3 46.9 60 1 33.9 0
11:12 1026 30.3 855 25.25 8.1 46.7 60 0.9 33.6 0
11:13 1026 30.3 855 25.25 8 46.4 58 0.3 32.6 0
11:14 1026 30.3 855 25.25 7.8 46.1 59 0.3 32.6 0
11:15 1026 30.3 855 25.25 7.7 45.9 60 0.5 32.9 0
11:16 1026 30.3 855 25.25 7.7 45.8 61 0.7 33.3 0
11:17 1026 30.3 855 25.25 7.7 45.8 59 0.1 32.2 0
11:18 1026 30.3 855 25.25 7.6 45.7 60 0.3 32.6 0
11:19 1026 30.3 855 25.25 7.6 45.7 61 0.5 33 0
11:20 1026 30.3 855 25.25 7.6 45.6 59 0.2 32.3 0
11:21 1026 30.3 855 25.25 7.5 45.6 59 0.1 32.1 0
11:22 1026 30.3 855 25.25 7.4 45.4 60 0.2 32.3 0
11:23 1026 30.3 855 25.25 7.5 45.4 60 0.1 32.2 0
11:24 1026 30.3 855 25.25 7.5 45.5 60 0.2 32.4 0
11:25 1026 30.3 855 25.25 7.6 45.6 59 0.1 32.2 0
11:26 1026 30.3 855 25.25 7.6 45.6 60 0.3 32.6 0
11:27 1026 30.3 855 25.25 7.7 45.8 59 0.2 32.4 0
11:28 1026 30.3 855 25.25 7.8 46 59 0.2 32.3 0
11:29 1026 30.3 855 25.25 7.9 46.2 61 0.9 33.5 0
11:30 1026 30.3 855 25.25 8 46.3 61 0.8 33.5 0
11:31 1026 30.3 855 25.25 8 46.3 58 0.2 32.4 0
11:32 1026 30.3 855 25.25 7.9 46.2 58 0.2 32.3 0
11:33 1026 30.3 855 25.25 7.9 46.1 60 0.6 33.2 0
11:34 1026 30.3 855 25.25 7.8 46.1 59 0.2 32.4 0
11:35 1026 30.3 855 25.25 7.9 46.1 58 0.1 32.2 0
11:36 1026 30.3 855 25.25 7.9 46.2 57 0.1 32.1 0
11:37 1026 30.3 855 25.25 8 46.3 58 0.2 32.3 0
11:38 1026 30.3 855 25.25 8.2 46.7 59 0.7 33.2 0
11:39 1026 30.3 855 25.25 8.3 46.9 57 0.3 32.5 0
11:40 1026 30.3 855 25.25 8.4 47 57 0.5 32.8 0
11:41 1026 30.3 855 25.25 8.3 47 59 0.8 33.4 0
11:42 1026 30.3 855 25.25 8.3 47 57 0.4 32.7 0
11:43 1026 30.3 855 25.25 8.4 47.1 59 0.8 33.4 0
11:44 1026 30.3 855 25.25 8.4 47 59 0.7 33.3 0
11:45 1026 30.3 855 25.25 8.4 47.1 60 1.1 33.9 0
11:46 1026 30.3 855 25.25 8.4 47.2 57 0.5 33 0
11:47 1026 30.3 855 25.25 8.4 47.2 57 0.5 32.9 0
11:48 1026 30.3 855 25.25 8.3 47 58 0.5 32.9 0
11:49 1025 30.27 855 25.25 8.3 47 60 1 33.8 0
11:50 1026 30.3 855 25.25 8.4 47.1 59 0.8 33.4 0
11:51 1026 30.3 855 25.25 8.3 47 59 0.9 33.6 0
11:52 1025 30.27 855 25.25 8.3 46.9 58 0.6 33.2 0
11:53 1025 30.27 855 25.25 8.3 46.9 58 0.6 33 0
11:54 1025 30.27 855 25.25 8.4 47 59 0.7 33.3 0
11:55 1025 30.27 855 25.25 8.4 47.2 58 0.7 33.2 0
11:56 1025 30.27 855 25.25 8.5 47.2 58 0.8 33.5 0
11:57 1025 30.27 855 25.25 8.5 47.2 59 0.8 33.5 0
11:58 1025 30.27 855 25.25 8.5 47.3 59 0.9 33.6 0
11:59 1025 30.27 855 25.25 8.5 47.3 60 1.2 34.1 0
12:00 1025 30.27 855 25.25 8.6 47.4 60 1.4 34.4 0
12:01 1025 30.27 855 25.25 8.6 47.4 60 1.2 34.2 0
12:02 1025 30.27 855 25.25 8.6 47.4 62 1.6 34.9 0
12:03 1026 30.3 855 25.25 8.5 47.4 59 1.1 34 0
12:04 1026 30.3 855 25.25 8.5 47.2 59 1 33.8 0
12:05 1026 30.3 855 25.25 8.4 47.1 61 1.4 34.4 0
12:06 1026 30.3 855 25.25 8.4 47 59 0.9 33.6 0
12:07 1026 30.3 855 25.25 8.3 47 60 1.1 34 0
12:08 1026 30.3 855 25.25 8.4 47 60 1.1 34 0
12:09 1026 30.3 855 25.25 8.4 47 61 1.4 34.5 0
12:10 1026 30.3 855 25.25 8.4 47 61 1.4 34.5 0
12:11 1026 30.3 855 25.25 8.3 47 61 1.2 34.1 0
12:12 1026 30.3 855 25.25 8.3 47 59 0.8 33.5 0
12:13 1026 30.3 855 25.25 8.3 46.9 59 0.8 33.5 0
12:14 1026 30.3 855 25.25 8.2 46.8 59 0.7 33.3 0
12:15 1026 30.3 855 25.25 8.2 46.8 61 1.3 34.3 0
12:16 1026 30.3 855 25.25 8.3 46.9 59 0.9 33.6 0
12:17 1026 30.3 855 25.25 8.3 46.9 59 0.9 33.6 0
12:18 1026 30.3 855 25.25 8.3 47 59 0.9 33.6 0
12:19 1026 30.3 855 25.25 8.3 46.9 62 1.4 34.5 0
12:20 1026 30.3 855 25.25 8.4 47.2 61 1.4 34.4 0
12:21 1026 30.3 855 25.25 8.6 47.4 62 1.7 35.1 0
12:22 1026 30.3 855 25.25 8.8 47.8 63 2.3 36.1 0
12:23 1026 30.3 855 25.25 9 48.2 59 1.5 34.7 0
12:24 1026 30.3 855 25.25 9.1 48.4 61 2.1 35.7 0
12:25 1026 30.3 855 25.25 9.2 48.6 60 1.9 35.4 0
12:26 1026 30.3 855 25.25 9.3 48.7 59 1.8 35.2 0
12:27 1026 30.3 855 25.25 9.2 48.6 58 1.4 34.5 0
12:28 1026 30.3 855 25.25 9.3 48.7 62 2.3 36.2 0
12:29 1026 30.3 855 25.25 9.3 48.7 60 1.9 35.4 0
12:30 1026 30.3 855 25.25 9.3 48.7 58 1.5 34.7 0
12:31 1026 30.3 855 25.25 9.3 48.8 63 2.7 36.8 0
12:32 1026 30.3 855 25.25 9.4 49 57 1.5 34.7 0
12:33 1026 30.3 855 25.25 9.5 49.2 59 2 35.6 0
12:34 1026 30.3 855 25.25 9.7 49.4 58 1.9 35.3 0
12:35 1026 30.3 855 25.25 9.8 49.7 58 2 35.5 0
12:36 1026 30.3 855 25.25 10 49.9 59 2.4 36.2 0
12:37 1026 30.3 855 25.25 10.1 50.2 56 1.8 35.3 0
12:38 1026 30.3 855 25.25 9.9 49.9 56 1.7 35.1 0
12:39 1026 30.3 855 25.25 9.8 49.6 58 2 35.6 0
12:40 1026 30.3 855 25.25 9.6 49.3 60 2.3 36.1 0
12:41 1026 30.3 855 25.25 9.5 49.1 57 1.4 34.4 0
12:42 1026 30.3 855 25.25 9.3 48.8 58 1.6 34.9 0
12:43 1026 30.3 855 25.25 9.2 48.5 57 1.2 34.2 0
12:44 1026 30.3 855 25.25 9.1 48.4 60 1.8 35.2 0
12:45 1026 30.3 855 25.25 9.1 48.3 62 2.2 36 0
12:46 1026 30.3 855 25.25 9.1 48.3 62 2.1 35.8 0
12:47 1026 30.3 855 25.25 9.1 48.4 59 1.5 34.7 0
12:48 1026 30.3 855 25.25 9.1 48.3 59 1.6 34.8 0
12:49 1026 30.3 855 25.25 9 48.3 59 1.4 34.6 0
12:50 1026 30.3 855 25.25 9.1 48.3 59 1.4 34.5 0
12:51 1026 30.3 855 25.25 9 48.2 61 1.9 35.5 0
12:52 1026 30.3 855 25.25 9 48.3 60 1.6 34.9 0
12:53 1026 30.3 855 25.25 9.1 48.3 62 2.1 35.8 0
12:54 1026 30.3 855 25.25 9.1 48.3 60 1.7 35.1 0
12:55 1026 30.3 855 25.25 9 48.3 60 1.8 35.2 0
12:56 1026 30.3 855 25.25 9.1 48.4 61 2 35.7 0
12:57 1026 30.3 855 25.25 9.1 48.3 60 1.7 35 0
12:58 1025 30.27 855 25.25 9.1 48.3 60 1.7 35 0
12:59 1025 30.27 855 25.25 9 48.2 60 1.8 35.2 0
13:00 1025 30.27 855 25.25 9 48.2 62 2.1 35.8 0
13:01 1025 30.27 855 25.25 9 48.1 63 2.3 36.1 0
13:02 1025 30.27 855 25.25 9 48.1 61 1.9 35.4 0
13:03 1025 30.27 855 25.25 9 48.2 62 2.1 35.7 0
13:04 1025 30.27 855 25.25 9 48.2 62 2.1 35.7 0
13:05 1025 30.27 855 25.25 9 48.2 61 2 35.5 0
13:06 1025 30.27 855 25.25 9 48.3 61 2 35.7 0
13:07 1025 30.27 855 25.25 9.1 48.3 60 1.6 35 0
13:08 1025 30.27 855 25.25 9.1 48.3 61 2 35.6 0
13:09 1025 30.27 855 25.25 9.1 48.3 60 1.8 35.2 0
13:10 1025 30.27 855 25.25 9.1 48.3 59 1.5 34.7 0
13:11 1025 30.27 855 25.25 9 48.2 57 1.1 34 0
13:12 1025 30.27 855 25.25 9 48.3 60 1.7 35.1 0
13:13 1025 30.27 855 25.25 9 48.2 58 1.2 34.1 0
13:14 1025 30.27 855 25.25 9 48.2 59 1.4 34.5 0
13:15 1025 30.27 855 25.25 9 48.2 59 1.4 34.4 0
13:16 1025 30.27 855 25.25 9 48.2 59 1.4 34.6 0
13:17 1025 30.27 855 25.25 9 48.3 57 1 33.8 0
13:18 1025 30.27 855 25.25 9 48.1 56 0.6 33.1 0
13:19 1025 30.27 855 25.25 8.9 48.1 58 1.2 34.1 0
13:20 1025 30.27 855 25.25 8.9 48 57 0.8 33.5 0
13:21 1025 30.27 855 25.25 8.9 47.9 58 1 33.9 0
13:22 1025 30.27 855 25.25 8.8 47.9 60 1.5 34.8 0
13:23 1025 30.27 855 25.25 8.9 48 62 2.1 35.9 0
13:24 1025 30.27 855 25.25 9 48.2 59 1.6 34.8 0
13:25 1025 30.27 855 25.25 9.1 48.4 60 1.9 35.4 0
13:26 1025 30.27 855 25.25 9.2 48.5 57 1.2 34.1 0
13:27 1025 30.27 855 25.25 9.1 48.4 57 1.1 34.1 0
13:28 1025 30.27 855 25.25 9 48.3 59 1.4 34.6 0
13:29 1025 30.27 855 25.25 9 48.3 59 1.5 34.6 0
13:30 1025 30.27 855 25.25 9 48.2 59 1.4 34.5 0
13:31 1025 30.27 855 25.25 9 48.3 59 1.6 34.8 0
13:32 1025 30.27 855 25.25 9 48.2 58 1.2 34.2 0
13:33 1025 30.27 855 25.25 9 48.2 60 1.7 35.1 0
13:34 1025 30.27 855 25.25 9.1 48.3 58 1.3 34.3 0
13:35 1025 30.27 855 25.25 9 48.2 58 1.3 34.3 0
13:36 1025 30.27 855 25.25 9 48.1 58 1.2 34.2 0
13:37 1025 30.27 855 25.25 8.9 48.1 60 1.5 34.7 0
13:38 1025 30.27 855 25.25 9 48.1 58 1.2 34.2 0
13:39 1025 30.27 855 25.25 9 48.2 57 1 33.7 0
13:40 1025 30.27 855 25.25 9 48.1 59 1.3 34.4 0
13:41 1025 30.27 855 25.25 9 48.2 60 1.6 34.9 0
13:42 1025 30.27 855 25.25 9 48.2 58 1.2 34.1 0
13:43 1025 30.27 855 25.25 9.1 48.3 59 1.4 34.6 0
13:44 1025 30.27 855 25.25 9.1 48.4 58 1.2 34.2 0
13:45 1025 30.27 855 25.25 9.1 48.4 58 1.2 34.2 0
13:46 1025 30.27 854 25.22 9.1 48.3 57 0.9 33.7 0
13:47 1025 30.27 854 25.22 9.1 48.4 59 1.5 34.7 0
13:48 1025 30.27 854 25.22 9.2 48.6 58 1.3 34.4 0
13:49 1025 30.27 854 25.22 9.3 48.8 57 1.3 34.4 0
13:50 1025 30.27 854 25.22 9.4 48.8 57 1.2 34.1 0
13:51 1025 30.27 854 25.22 9.4 48.8 57 1.2 34.1 0
13:52 1025 30.27 854 25.22 9.3 48.8 56 1.1 34 0
13:53 1025 30.27 854 25.22 9.3 48.8 56 1 33.8 0
13:54 1025 30.27 855 25.25 9.3 48.8 54 0.5 32.9 0
13:55 1025 30.27 854 25.22 9.3 48.7 57 1.2 34.1 0
13:56 1025 30.27 854 25.22 9.3 48.7 57 1.3 34.3 0
13:57 1025 30.27 854 25.22 9.2 48.6 56 1.1 33.9 0
13:58 1025 30.27 854 25.22 9.2 48.6 57 1.2 34.2 0
13:59 1025 30.27 854 25.22 9.2 48.5 55 0.7 33.3 0
14:00 1025 30.27 854 25.22 9.2 48.6 58 1.4 34.6 0
14:01 1025 30.27 854 25.22 9.2 48.5 56 0.9 33.6 0
14:02 1025 30.27 854 25.22 9.2 48.5 57 1.2 34.2 0
14:03 1025 30.27 854 25.22 9.1 48.3 58 1.3 34.3 0
14:04 1025 30.27 854 25.22 9 48.2 57 1 33.9 0
14:05 1025 30.27 854 25.22 8.9 48.1 59 1.3 34.4 0
14:06 1025 30.27 854 25.22 8.9 48.1 60 1.6 34.8 0
14:07 1025 30.27 854 25.22 8.9 48 59 1.3 34.3 0
14:08 1025 30.27 854 25.22 8.9 48 60 1.6 34.9 0
14:09 1025 30.27 854 25.22 8.9 48 60 1.6 34.9 0
14:10 1025 30.27 854 25.22 8.9 48 59 1.4 34.5 0
14:11 1025 30.27 854 25.22 8.9 48 56 0.7 33.3 0
14:12 1025 30.27 854 25.22 8.8 47.9 58 1 33.8 0
14:13 1025 30.27 854 25.22 8.8 47.8 60 1.4 34.6 0
14:14 1025 30.27 854 25.22 8.8 47.9 58 1.1 34 0
14:15 1025 30.27 854 25.22 8.8 47.9 58 1 33.8 0
14:16 1025 30.27 854 25.22 8.8 47.8 58 1 33.8 0
14:17 1025 30.27 854 25.22 8.8 47.8 60 1.4 34.6 0
14:18 1025 30.27 854 25.22 8.8 47.8 59 1.3 34.3 0
14:19 1025 30.27 854 25.22 8.8 47.8 58 0.9 33.6 0
14:20 1025 30.27 854 25.22 8.8 47.9 58 1 33.7 0
14:21 1025 30.27 854 25.22 8.9 47.9 58 1.1 34.1 0
14:22 1025 30.27 854 25.22 8.9 47.9 60 1.4 34.6 0
14:23 1025 30.27 854 25.22 8.9 48.1 59 1.3 34.3 0
14:24 1025 30.27 854 25.22 8.9 48.1 60 1.7 35.1 0
14:25 1025 30.27 854 25.22 8.9 48.1 60 1.6 34.9 0
14:26 1025 30.27 854 25.22 8.9 48.1 61 1.8 35.3 0
14:27 1025 30.27 854 25.22 8.9 48 60 1.6 34.8 0
14:28 1025 30.27 854 25.22 8.9 48 60 1.5 34.8 0
14:29 1025 30.27 854 25.22 8.9 48 58 1.1 34 0
14:30 1025 30.27 854 25.22 8.9 47.9 58 1.2 34.1 0
14:31 1025 30.27 854 25.22 8.9 48 60 1.5 34.6 0
14:32 1025 30.27 854 25.22 8.8 47.8 59 1.2 34.2 0
14:33 1025 30.27 854 25.22 8.8 47.8 60 1.5 34.6 0
14:34 1025 30.27 854 25.22 8.8 47.8 63 2.1 35.7 0
14:35 1025 30.27 854 25.22 8.8 47.9 60 1.5 34.7 0
14:36 1025 30.27 854 25.22 8.8 47.9 61 1.7 35 0
14:37 1025 30.27 854 25.22 8.8 47.9 59 1.4 34.4 0
14:38 1025 30.27 854 25.22 8.9 47.9 59 1.3 34.3 0
14:39 1025 30.27 854 25.22 8.9 47.9 60 1.5 34.8 0
14:40 1025 30.27 854 25.22 8.8 47.9 62 2 35.6 0
14:41 1025 30.27 854 25.22 8.9 48 61 1.7 35 0
14:42 1025 30.27 854 25.22 8.8 47.9 59 1.3 34.4 0
14:43 1025 30.27 854 25.22 8.8 47.8 62 1.8 35.3 0
14:44 1025 30.27 854 25.22 8.7 47.7 59 1.2 34.2 0
14:45 1025 30.27 854 25.22 8.7 47.7 59 1.2 34.1 0
14:46 1025 30.27 854 25.22 8.7 47.6 59 1.1 34.1 0
14:47 1025 30.27 854 25.22 8.6 47.6 61 1.6 34.9 0
14:48 1025 30.27 854 25.22 8.6 47.4 60 1.3 34.3 0
14:49 1025 30.27 854 25.22 8.6 47.4 61 1.4 34.5 0
14:50 1025 30.27 854 25.22 8.5 47.2 59 1.1 33.9 0
14:51 1025 30.27 854 25.22 8.4 47.2 61 1.4 34.6 0
14:52 1025 30.27 854 25.22 8.4 47.1 62 1.5 34.7 0
14:53 1025 30.27 854 25.22 8.3 47 62 1.5 34.7 0
14:54 1025 30.27 854 25.22 8.3 46.9 62 1.5 34.7 0
14:55 1025 30.27 854 25.22 8.3 46.9 62 1.5 34.7 0
14:56 1025 30.27 854 25.22 8.2 46.8 63 1.6 34.9 0
14:57 1025 30.27 854 25.22 8.2 46.8 63 1.6 35 0
14:58 1025 30.27 854 25.22 8.2 46.7 63 1.6 34.8 0
14:59 1025 30.27 854 25.22 8.2 46.8 64 1.9 35.4 0
15:00 1025 30.27 854 25.22 8.2 46.8 65 2 35.7 0
15:01 1025 30.27 854 25.22 8.1 46.6 65 2 35.6 0
15:02 1025 30.27 854 25.22 8.1 46.6 65 2 35.6 0
15:03 1025 30.27 854 25.22 8.2 46.7 67 2.3 36.2 0
15:04 1025 30.27 854 25.22 8.2 46.7 66 2.1 35.8 0
15:05 1025 30.27 854 25.22 8.2 46.7 63 1.7 35 0
15:06 1025 30.27 854 25.22 8.2 46.7 63 1.6 34.9 0
15:07 1025 30.27 854 25.22 8.1 46.6 63 1.6 34.9 0
15:08 1025 30.27 854 25.22 8.2 46.7 64 1.8 35.2 0
15:09 1025 30.27 854 25.22 8.2 46.7 62 1.4 34.5 0
15:10 1025 30.27 854 25.22 8.2 46.8 65 2 35.6 0
15:11 1025 30.27 854 25.22 8.3 46.9 62 1.5 34.7 0
15:12 1025 30.27 854 25.22 8.3 46.9 61 1.3 34.3 0
15:13 1025 30.27 854 25.22 8.4 47 63 1.7 35.1 0
15:14 1025 30.27 854 25.22 8.5 47.2 62 1.7 35.1 0
15:15 1025 30.27 854 25.22 8.5 47.3 62 1.8 35.2 0
15:16 1025 30.27 854 25.22 8.7 47.6 60 1.4 34.6 0
15:17 1025 30.27 854 25.22 8.8 47.9 62 2 35.7 0
15:18 1025 30.27 854 25.22 8.9 48 59 1.3 34.4 0
15:19 1025 30.27 854 25.22 9 48.3 58 1.3 34.4 0
15:20 1025 30.27 854 25.22 9.1 48.3 60 1.7 35.1 0
15:21 1025 30.27 854 25.22 9.2 48.6 59 1.6 34.9 0
15:22 1025 30.27 854 25.22 9.3 48.7 58 1.4 34.5 0
15:23 1025 30.27 854 25.22 9.4 48.9 56 1 33.9 0
15:24 1025 30.27 854 25.22 9.4 48.9 59 1.8 35.3 0
15:25 1025 30.27 854 25.22 9.4 49 55 0.8 33.4 0
15:26 1025 30.27 854 25.22 9.4 49 57 1.4 34.5 0
15:27 1025 30.27 854 25.22 9.4 49 57 1.4 34.5 0
15:28 1025 30.27 854 25.22 9.4 49 59 1.8 35.2 0
15:29 1025 30.27 854 25.22 9.5 49.1 55 0.9 33.7 0
15:30 1025 30.27 854 25.22 9.5 49.1 57 1.5 34.7 0
15:31 1025 30.27 854 25.22 9.5 49.1 57 1.3 34.4 0
15:32 1025 30.27 854 25.22 9.5 49.1 56 1.2 34.2 0
15:33 1025 30.27 854 25.22 9.5 49.1 56 1.1 34 0
15:34 1025 30.27 854 25.22 9.5 49.1 56 1.2 34.1 0
15:35 1025 30.27 854 25.22 9.4 49 55 0.9 33.6 0
15:36 1025 30.27 854 25.22 9.4 49 55 0.8 33.4 0
15:37 1025 30.27 854 25.22 9.4 48.8 58 1.5 34.7 0
15:38 1025 30.27 854 25.22 9.5 49 56 1.2 34.2 0
15:39 1025 30.27 854 25.22 9.6 49.2 55 1 33.7 0
15:40 1025 30.27 854 25.22 9.7 49.4 55 1.2 34.1 0
15:41 1025 30.27 854 25.22 9.9 49.7 53 0.9 33.6 0
15:42 1025 30.27 854 25.22 10.1 50.1 56 1.6 34.9 0
15:43 1025 30.27 854 25.22 10.2 50.3 53 1 33.8 0
15:44 1025 30.27 854 25.22 10.3 50.6 57 2.2 35.9 0
15:45 1025 30.27 854 25.22 10.5 50.9 54 1.7 35 0
15:46 1025 30.27 854 25.22 10.6 51 51 1 33.8 0
15:47 1025 30.27 854 25.22 10.5 51 55 1.9 35.4 0
15:48 1025 30.27 854 25.22 10.5 50.9 51 0.9 33.7 0
15:49 1025 30.27 854 25.22 10.4 50.6 52 1.1 34 0
15:50 1025 30.27 854 25.22 10.4 50.7 54 1.4 34.5 0
15:51 1025 30.27 854 25.22 10.5 50.9 51 0.8 33.5 0
15:52 1025 30.27 854 25.22 10.6 51.1 54 1.7 35 0
15:53 1025 30.27 854 25.22 10.8 51.4 51 1.1 33.9 0
15:54 1025 30.27 854 25.22 10.9 51.5 50 1 33.8 0
15:55 1025 30.27 854 25.22 10.8 51.5 51 1.1 34 0
15:56 1025 30.27 854 25.22 10.8 51.5 51 1.1 34 0
15:57 1025 30.27 854 25.22 10.8 51.4 51 1.1 34 0
15:58 1025 30.27 854 25.22 10.7 51.2 55 2 35.5 0
15:59 1025 30.27 854 25.22 10.6 51 50 0.7 33.3 0
16:00 1025 30.27 854 25.22 10.5 50.9 53 1.3 34.4 0
16:01 1025 30.27 854 25.22 10.5 50.9 53 1.5 34.7 0
16:02 1025 30.27 854 25.22 10.5 51 53 1.4 34.5 0
16:03 1025 30.27 854 25.22 10.5 50.9 51 0.9 33.7 0
16:04 1025 30.27 854 25.22 10.4 50.8 53 1.4 34.6 0
16:05 1025 30.27 854 25.22 10.5 50.8 52 1.1 34 0
16:06 1025 30.27 854 25.22 10.4 50.8 54 1.6 34.9 0
16:07 1025 30.27 854 25.22 10.5 50.9 51 1 33.8 0
16:08 1025 30.27 854 25.22 10.5 51 52 1.2 34.2 0
16:09 1025 30.27 854 25.22 10.5 51 52 1.3 34.3 0
16:10 1025 30.27 854 25.22 10.6 51.1 53 1.4 34.6 0
16:11 1025 30.27 854 25.22 10.7 51.2 52 1.3 34.4 0
16:12 1025 30.27 854 25.22 10.7 51.3 54 1.8 35.3 0
16:13 1025 30.27 854 25.22 10.7 51.3 54 1.8 35.3 0
16:14 1025 30.27 854 25.22 10.7 51.2 54 1.8 35.2 0
16:15 1025 30.27 854 25.22 10.5 51 55 1.9 35.4 0
16:16 1025 30.27 854 25.22 10.3 50.5 52 1 33.8 0
16:17 1025 30.27 854 25.22 10 50 55 1.4 34.5 0
16:18 1025 30.27 854 25.22 9.8 49.7 57 1.7 35 0
16:19 1025 30.27 854 25.22 9.7 49.5 56 1.4 34.6 0
16:20 1025 30.27 854 25.22 9.6 49.3 57 1.5 34.6 0
16:21 1025 30.27 854 25.22 9.5 49 57 1.5 34.6 0
16:22 1025 30.27 854 25.22 9.4 48.9 58 1.5 34.6 0
16:23 1025 30.27 854 25.22 9.3 48.8 59 1.7 35.1 0
16:24 1025 30.27 854 25.22 9.3 48.7 59 1.8 35.3 0
16:25 1025 30.27 854 25.22 9.3 48.8 59 1.8 35.2 0
16:26 1025 30.27 854 25.22 9.3 48.7 61 2.1 35.8 0
16:27 1025 30.27 854 25.22 9.3 48.7 57 1.3 34.4 0
16:28 1025 30.27 854 25.22 9.2 48.6 58 1.4 34.4 0
16:29 1025 30.27 854 25.22 9.2 48.6 57 1.2 34.2 0
16:30 1025 30.27 854 25.22 9.2 48.6 58 1.4 34.5 0
16:31 1025 30.27 854 25.22 9.2 48.5 59 1.7 35 0
16:32 1025 30.27 854 25.22 9.1 48.5 58 1.3 34.4 0
16:33 1025 30.27 854 25.22 9.1 48.3 59 1.5 34.8 0
16:34 1025 30.27 854 25.22 9 48.2 58 1.2 34.2 0
16:35 1025 30.27 854 25.22 9 48.1 59 1.5 34.7 0
16:36 1025 30.27 854 25.22 8.9 48 60 1.5 34.8 0
16:37 1025 30.27 854 25.22 8.9 48 58 1.2 34.1 0
16:38 1025 30.27 854 25.22 8.9 47.9 59 1.4 34.5 0
16:39 1025 30.27 854 25.22 8.8 47.9 59 1.3 34.4 0
16:40 1025 30.27 854 25.22 8.8 47.9 61 1.7 35 0
16:41 1025 30.27 854 25.22 8.8 47.9 60 1.6 34.9 0
16:42 1025 30.27 854 25.22 8.8 47.9 61 1.7 35.1 0
16:43 1025 30.27 854 25.22 8.8 47.8 58 0.9 33.7 0
16:44 1025 30.27 854 25.22 8.8 47.8 59 1.3 34.4 0
16:45 1025 30.27 854 25.22 8.8 47.8 59 1.3 34.4 0
16:46 1025 30.27 854 25.22 8.8 47.8 60 1.4 34.6 0
16:47 1025 30.27 854 25.22 8.7 47.7 60 1.4 34.5 0
16:48 1025 30.27 854 25.22 8.7 47.7 60 1.4 34.6 0
16:49 1025 30.27 854 25.22 8.7 47.7 59 1.3 34.3 0
16:50 1025 30.27 854 25.22 8.7 47.7 59 1.1 34 0
16:51 1025 30.27 854 25.22 8.7 47.6 58 1 33.8 0
16:52 1025 30.27 854 25.22 8.7 47.6 60 1.3 34.4 0
16:53 1025 30.27 854 25.22 8.6 47.5 61 1.6 34.9 0
16:54 1025 30.27 854 25.22 8.6 47.4 59 1.1 33.9 0
16:55 1025 30.27 854 25.22 8.6 47.4 59 1.1 33.9 0
16:56 1025 30.27 854 25.22 8.6 47.4 59 1.1 34.1 0
16:57 1025 30.27 854 25.22 8.6 47.5 61 1.5 34.7 0
16:58 1025 30.27 854 25.22 8.6 47.4 60 1.3 34.3 0
16:59 1025 30.27 854 25.22 8.6 47.4 62 1.7 35.1 0
17:00 1025 30.27 854 25.22 8.5 47.3 60 1.1 34 0
17:01 1025 30.27 854 25.22 8.5 47.4 62 1.7 35.1 0
17:02 1025 30.27 854 25.22 8.5 47.3 62 1.7 35.1 0
17:03 1025 30.27 854 25.22 8.5 47.3 62 1.7 35.1 0
17:04 1025 30.27 854 25.22 8.5 47.3 62 1.6 34.9 0
17:05 1025 30.27 854 25.22 8.5 47.3 62 1.6 34.8 0
17:06 1025 30.27 854 25.22 8.5 47.3 62 1.7 35.1 0
17:07 1025 30.27 854 25.22 8.5 47.3 63 1.8 35.3 0
17:08 1025 30.27 854 25.22 8.5 47.2 60 1.2 34.1 0
17:09 1025 30.27 854 25.22 8.5 47.3 61 1.5 34.7 0
17:10 1025 30.27 854 25.22 8.5 47.4 63 1.9 35.3 0
17:11 1025 30.27 854 25.22 8.5 47.3 62 1.6 34.9 0
17:12 1025 30.27 854 25.22 8.5 47.2 63 1.8 35.2 0
17:13 1025 30.27 854 25.22 8.4 47.1 64 2 35.6 0
17:14 1025 30.27 854 25.22 8.3 47 65 2.1 35.9 0
17:15 1025 30.27 854 25.22 8.2 46.8 65 2.1 35.7 0
17:16 1025 30.27 854 25.22 8.2 46.8 65 2 35.5 0
17:17 1025 30.27 854 25.22 8.2 46.7 64 1.9 35.4 0
17:18 1025 30.27 854 25.22 8.2 46.7 65 2 35.6 0
17:19 1025 30.27 854 25.22 8.1 46.6 65 2 35.6 0
17:20 1025 30.27 854 25.22 8.1 46.6 66 2.1 35.8 0
17:21 1025 30.27 854 25.22 8.1 46.5 66 2.2 35.9 0
17:22 1025 30.27 854 25.22 8 46.5 67 2.2 36 0
17:23 1025 30.27 854 25.22 8 46.4 66 2.1 35.8 0
17:24 1025 30.27 854 25.22 8 46.4 66 2.1 35.8 0
17:25 1025 30.27 854 25.22 7.9 46.3 67 2.2 36 0
17:26 1025 30.27 854 25.22 7.9 46.2 66 2 35.6 0
17:27 1025 30.27 854 25.22 7.9 46.2 66 2 35.7 0
17:28 1025 30.27 854 25.22 7.9 46.2 67 2.1 35.8 0
17:29 1025 30.27 854 25.22 7.9 46.2 67 2.2 36 0
17:30 1025 30.27 854 25.22 7.8 46.1 67 2.1 35.8 0
17:31 1025 30.27 854 25.22 7.8 46.1 67 2.2 35.9 0
17:32 1025 30.27 854 25.22 7.8 46 68 2.3 36.1 0
17:33 1025 30.27 854 25.22 7.8 46 68 2.3 36.2 0
17:34 1025 30.27 854 25.22 7.7 45.9 69 2.3 36.2 0
17:35 1025 30.27 854 25.22 7.6 45.7 69 2.3 36.1 0
17:36 1025 30.27 854 25.22 7.6 45.7 68 2.1 35.8 0
17:37 1025 30.27 854 25.22 7.6 45.7 69 2.2 36 0
17:38 1025 30.27 854 25.22 7.6 45.6 69 2.3 36.1 0
17:39 1025 30.27 854 25.22 7.6 45.6 69 2.3 36.2 0
17:40 1025 30.27 854 25.22 7.5 45.5 69 2.2 36 0
17:41 1025 30.27 854 25.22 7.5 45.5 69 2.3 36.1 0
17:42 1025 30.27 854 25.22 7.5 45.5 69 2.2 36 0
17:43 1025 30.27 854 25.22 7.4 45.4 68 2 35.6 0
17:44 1025 30.27 854 25.22 7.5 45.5 68 1.9 35.5 0
17:45 1025 30.27 854 25.22 7.5 45.5 68 1.9 35.4 0
17:46 1025 30.27 854 25.22 7.5 45.5 67 1.9 35.4 0
17:47 1025 30.27 854 25.22 7.5 45.6 67 1.8 35.3 0
17:48 1025 30.27 854 25.22 7.5 45.6 66 1.6 35 0
17:49 1025 30.27 854 25.22 7.6 45.6 66 1.6 34.9 0
17:50 1025 30.27 854 25.22 7.6 45.6 67 1.8 35.2 0
17:51 1025 30.27 854 25.22 7.5 45.5 67 1.8 35.3 0
17:52 1025 30.27 854 25.22 7.5 45.5 67 1.9 35.4 0
17:53 1025 30.27 854 25.22 7.5 45.5 67 1.8 35.3 0
17:54 1025 30.27 854 25.22 7.5 45.6 61 0.6 33 0
17:55 1025 30.27 854 25.22 7.8 46.1 59 0.4 32.7 0
17:56 1025 30.27 854 25.22 8 46.4 59 0.5 33 0
17:57 1025 30.27 854 25.22 8.1 46.6 60 0.9 33.6 0
17:58 1025 30.27 854 25.22 8.2 46.7 60 0.9 33.7 0
17:59 1025 30.27 854 25.22 8.1 46.7 60 1 33.7 0
18:00 1025 30.27 854 25.22 8.2 46.7 60 0.8 33.4 0
18:01 1025 30.27 854 25.22 8.2 46.7 60 0.9 33.6 0
18:02 1025 30.27 854 25.22 8.2 46.7 60 1 33.7 0
18:03 1025 30.27 854 25.22 8.1 46.6 62 1.3 34.3 0
18:04 1025 30.27 854 25.22 8 46.4 62 1.1 34.1 0
18:05 1025 30.27 854 25.22 8 46.3 61 0.9 33.6 0
18:06 1025 30.27 854 25.22 8 46.4 63 1.4 34.6 0
18:07 1025 30.27 854 25.22 7.8 46.1 64 1.5 34.8 0
18:08 1025 30.27 854 25.22 7.7 45.8 66 1.7 35.1 0
18:09 1025 30.27 854 25.22 7.5 45.5 67 1.8 35.3 0
18:10 1025 30.27 854 25.22 7.4 45.3 68 1.9 35.4 0
18:11 1025 30.27 854 25.22 7.2 45 68 1.8 35.2 0
18:12 1025 30.27 854 25.22 7.2 44.9 68 1.7 35.1 0
18:13 1025 30.27 854 25.22 7.1 44.9 67 1.4 34.5 0
18:14 1025 30.27 854 25.22 7.2 44.9 67 1.6 34.8 0
18:15 1025 30.27 854 25.22 7.2 44.9 66 1.3 34.4 0
18:16 1025 30.27 854 25.22 7.2 45 68 1.7 35 0
18:17 1025 30.27 854 25.22 7.1 44.9 67 1.5 34.7 0
18:18 1025 30.27 854 25.22 7.1 44.8 69 1.8 35.2 0
18:19 1025 30.27 854 25.22 7 44.7 68 1.6 34.9 0
18:20 1025 30.27 854 25.22 7 44.7 68 1.6 34.8 0
18:21 1025 30.27 854 25.22 7 44.7 68 1.6 34.9 0
18:22 1025 30.27 854 25.22 7 44.7 69 1.7 35.1 0
18:23 1025 30.27 854 25.22 7 44.5 70 2 35.5 0
18:24 1025 30.27 854 25.22 6.8 44.3 71 1.9 35.3 0
18:25 1025 30.27 854 25.22 6.8 44.2 71 1.9 35.5 0
18:26 1025 30.27 854 25.22 6.7 44.1 71 1.9 35.4 0
18:27 1025 30.27 854 25.22 6.7 44 72 1.9 35.5 0
18:28 1025 30.27 854 25.22 6.6 43.9 72 1.9 35.4 0
18:29 1025 30.27 854 25.22 6.5 43.8 72 1.9 35.4 0
18:30 1025 30.27 854 25.22 6.5 43.7 73 2 35.5 0
18:31 1025 30.27 854 25.22 6.4 43.6 73 1.9 35.4 0
18:32 1025 30.27 854 25.22 6.5 43.6 73 1.9 35.4 0
18:33 1025 30.27 854 25.22 6.4 43.6 73 1.9 35.4 0
18:34 1025 30.27 854 25.22 6.4 43.5 73 1.9 35.4 0
18:35 1025 30.27 854 25.22 6.4 43.5 73 1.9 35.4 0
18:36 1025 30.27 854 25.22 6.4 43.5 73 2 35.6 0
18:37 1025 30.27 854 25.22 6.4 43.4 74 2 35.6 0
18:38 1025 30.27 854 25.22 6.3 43.3 74 2.1 35.7 0
18:39 1025 30.27 854 25.22 6.2 43.2 75 2.1 35.7 0
18:40 1025 30.27 854 25.22 6.1 43.1 75 2.1 35.8 0
18:41 1025 30.27 854 25.22 6.1 43 76 2.2 35.9 0
18:42 1025 30.27 854 25.22 6 42.8 76 2.1 35.8 0
18:43 1025 30.27 854 25.22 5.9 42.7 76 2 35.7 0
18:44 1025 30.27 855 25.25 5.9 42.6 76 2.1 35.7 0
18:45 1025 30.27 855 25.25 5.9 42.6 75 1.9 35.4 0
18:46 1025 30.27 855 25.25 6 42.8 75 1.9 35.5 0
18:47 1025 30.27 855 25.25 6 42.8 76 2 35.7 0
18:48 1025 30.27 855 25.25 6 42.8 76 2.1 35.8 0
18:49 1025 30.27 855 25.25 5.9 42.6 76 1.9 35.5 0
18:50 1025 30.27 855 25.25 5.9 42.6 76 1.9 35.5 0
18:51 1025 30.27 855 25.25 5.9 42.6 76 1.9 35.5 0
18:52 1025 30.27 855 25.25 5.9 42.6 76 2 35.6 0
18:53 1025 30.27 855 25.25 5.8 42.5 76 2 35.6 0
18:54 1025 30.27 855 25.25 5.8 42.5 77 2.1 35.7 0
18:55 1025 30.27 855 25.25 5.7 42.3 77 2 35.6 0
18:56 1025 30.27 855 25.25 5.7 42.3 77 2 35.7 0
18:57 1025 30.27 855 25.25 5.7 42.2 77 2 35.6 0
18:58 1025 30.27 855 25.25 5.6 42.1 78 2 35.6 0
18:59 1025 30.27 855 25.25 5.6 42 78 2 35.7 0
19:00 1025 30.27 855 25.25 5.6 42 78 2 35.6 0
19:01 1025 30.27 855 25.25 5.6 42.1 77 1.9 35.4 0
19:02 1025 30.27 855 25.25 5.7 42.3 77 1.9 35.5 0
19:03 1025 30.27 855 25.25 5.8 42.4 76 1.9 35.5 0
19:04 1025 30.27 855 25.25 5.8 42.4 76 1.9 35.5 0
19:05 1025 30.27 855 25.25 5.8 42.4 77 2 35.5 0
19:06 1025 30.27 855 25.25 5.7 42.3 77 1.9 35.5 0
19:07 1025 30.27 855 25.25 5.7 42.3 77 2 35.7 0
19:08 1025 30.27 855 25.25 5.6 42.1 78 2.1 35.7 0
19:09 1026 30.3 855 25.25 5.6 42 78 2 35.7 0
19:10 1026 30.3 855 25.25 5.5 42 78 2 35.6 0
19:11 1025 30.27 855 25.25 5.5 41.9 78 2 35.7 0
19:12 1026 30.3 855 25.25 5.5 41.9 78 2 35.7 0
19:13 1025 30.27 855 25.25 5.5 41.8 78 2 35.6 0
19:14 1026 30.3 855 25.25 5.4 41.8 79 2 35.6 0
19:15 1026 30.3 855 25.25 5.4 41.8 79 2.1 35.7 0
19:16 1026 30.3 855 25.25 5.4 41.7 78 1.9 35.5 0
19:17 1026 30.3 855 25.25 5.4 41.8 78 1.9 35.5 0
19:18 1026 30.3 855 25.25 5.5 41.9 78 2 35.6 0
19:19 1026 30.3 855 25.25 5.5 41.8 78 2 35.6 0
19:20 1026 30.3 855 25.25 5.5 41.8 78 2 35.6 0
19:21 1026 30.3 855 25.25 5.5 41.8 78 2 35.5 0
19:22 1025 30.27 855 25.25 5.5 41.9 78 2 35.5 0
19:23 1025 30.27 855 25.25 5.5 41.9 78 2 35.6 0
19:24 1026 30.3 855 25.25 5.5 41.9 78 2 35.6 0
19:25 1026 30.3 855 25.25 5.5 41.9 78 2 35.7 0
19:26 1026 30.3 855 25.25 5.5 41.9 78 2 35.6 0
19:27 1026 30.3 855 25.25 5.5 41.9 78 2 35.7 0
19:28 1026 30.3 855 25.25 5.5 41.9 78 2 35.7 0
19:29 1026 30.3 855 25.25 5.5 41.9 78 2 35.7 0
19:30 1026 30.3 855 25.25 5.5 41.8 78 2 35.6 0
19:31 1026 30.3 855 25.25 5.5 41.9 78 2 35.6 0
19:32 1026 30.3 855 25.25 5.5 41.8 78 2 35.5 0
19:33 1026 30.3 855 25.25 5.5 41.9 78 2 35.6 0
19:34 1026 30.3 855 25.25 5.5 41.8 78 2 35.5 0
19:35 1026 30.3 855 25.25 5.5 41.8 78 2 35.6 0
19:36 1026 30.3 855 25.25 5.4 41.8 78 1.9 35.5 0
19:37 1026 30.3 855 25.25 5.4 41.8 78 1.9 35.5 0
19:38 1026 30.3 855 25.25 5.4 41.7 79 2 35.6 0
19:39 1026 30.3 855 25.25 5.4 41.6 79 2 35.7 0
19:40 1026 30.3 855 25.25 5.3 41.6 80 2.1 35.7 0
19:41 1026 30.3 855 25.25 5.2 41.4 80 2.1 35.7 0
19:42 1026 30.3 855 25.25 5.2 41.3 80 2.1 35.7 0
19:43 1026 30.3 855 25.25 5.2 41.3 80 2.1 35.7 0
19:44 1026 30.3 855 25.25 5.2 41.4 80 2 35.7 0
19:45 1026 30.3 855 25.25 5.2 41.4 80 2 35.7 0
19:46 1026 30.3 855 25.25 5.2 41.4 80 2.1 35.7 0
19:47 1026 30.3 855 25.25 5.2 41.4 80 2 35.7 0
19:48 1026 30.3 855 25.25 5.2 41.4 80 2 35.6 0
19:49 1026 30.3 855 25.25 5.2 41.4 80 2 35.6 0
19:50 1026 30.3 855 25.25 5.3 41.5 80 2.1 35.7 0
19:51 1026 30.3 855 25.25 5.3 41.5 80 2 35.7 0
19:52 1026 30.3 855 25.25 5.3 41.5 80 2 35.7 0
19:53 1026 30.3 855 25.25 5.2 41.4 79 2 35.5 0
19:54 1026 30.3 855 25.25 5.2 41.4 80 2 35.6 0
19:55 1026 30.3 855 25.25 5.3 41.5 80 2 35.7 0
19:56 1026 30.3 855 25.25 5.2 41.4 80 2 35.7 0
19:57 1026 30.3 855 25.25 5.1 41.2 80 2 35.6 0
19:58 1026 30.3 855 25.25 5.1 41.2 80 2 35.6 0
19:59 1026 30.3 855 25.25 5.1 41.1 81 2 35.6 0
20:00 1026 30.3 855 25.25 5 41 81 2 35.6 0
20:01 1026 30.3 855 25.25 5 41 81 2 35.5 0
20:02 1026 30.3 855 25.25 5 41.1 80 1.9 35.4 0
20:03 1026 30.3 855 25.25 5.1 41.1 80 1.8 35.3 0
20:04 1026 30.3 855 25.25 5.1 41.3 80 1.9 35.4 0
20:05 1026 30.3 855 25.25 5.2 41.3 79 1.9 35.4 0
20:06 1026 30.3 855 25.25 5.2 41.4 79 1.9 35.4 0
20:07 1026 30.3 855 25.25 5.2 41.4 79 1.9 35.5 0
20:08 1026 30.3 855 25.25 5.2 41.4 79 2 35.5 0
20:09 1026 30.3 855 25.25 5.2 41.4 79 2 35.5 0
20:10 1026 30.3 855 25.25 5.2 41.4 80 2 35.6 0
20:11 1026 30.3 855 25.25 5.2 41.3 80 1.9 35.5 0
20:12 1026 30.3 855 25.25 5.2 41.4 80 2 35.6 0
20:13 1026 30.3 855 25.25 5.2 41.4 80 2 35.6 0
20:14 1026 30.3 855 25.25 5.2 41.3 80 2 35.6 0
20:15 1026 30.3 855 25.25 5.2 41.3 80 2 35.7 0
20:16 1026 30.3 855 25.25 5.2 41.3 80 2 35.6 0
20:17 1026 30.3 855 25.25 5.1 41.3 80 2 35.6 0
20:18 1026 30.3 855 25.25 5.1 41.2 80 2 35.6 0
20:19 1026 30.3 855 25.25 5.1 41.2 80 2 35.6 0
20:20 1026 30.3 855 25.25 5.1 41.2 80 2 35.6 0
20:21 1026 30.3 855 25.25 5.1 41.2 80 2 35.5 0
20:22 1026 30.3 855 25.25 5.1 41.2 80 2 35.5 0
20:23 1026 30.3 855 25.25 5.1 41.2 80 2 35.5 0
20:24 1026 30.3 855 25.25 5.1 41.2 80 2 35.5 0
20:25 1026 30.3 855 25.25 5.1 41.2 80 1.9 35.5 0
20:26 1026 30.3 855 25.25 5.1 41.1 80 1.9 35.4 0
20:27 1026 30.3 855 25.25 5.1 41.1 80 1.8 35.3 0
20:28 1026 30.3 855 25.25 5.1 41.1 80 1.8 35.3 0
20:29 1026 30.3 855 25.25 5.1 41.1 80 1.8 35.3 0
20:30 1026 30.3 855 25.25 5 41 80 1.8 35.2 0
20:31 1026 30.3 855 25.25 5 41 80 1.8 35.3 0
20:32 1026 30.3 855 25.25 4.9 40.8 80 1.8 35.2 0
20:33 1026 30.3 855 25.25 4.9 40.8 81 1.8 35.3 0
20:34 1026 30.3 855 25.25 4.8 40.7 81 1.8 35.2 0
20:35 1026 30.3 855 25.25 4.8 40.6 81 1.8 35.2 0
20:36 1026 30.3 855 25.25 4.7 40.5 81 1.8 35.2 0
20:37 1026 30.3 855 25.25 4.7 40.4 81 1.8 35.2 0
20:38 1026 30.3 855 25.25 4.6 40.3 82 1.8 35.2 0
20:39 1026 30.3 855 25.25 4.6 40.2 82 1.8 35.2 0
20:40 1026 30.3 855 25.25 4.5 40.1 82 1.7 35.1 0
20:41 1026 30.3 855 25.25 4.4 39.9 83 1.7 35.1 0
20:42 1026 30.3 855 25.25 4.3 39.8 83 1.6 34.9 0
20:43 1026 30.3 855 25.25 4.3 39.7 83 1.6 34.9 0
20:44 1026 30.3 855 25.25 4.3 39.7 83 1.6 34.8 0
20:45 1026 30.3 855 25.25 4.2 39.6 83 1.6 34.8 0
20:46 1026 30.3 855 25.25 4.2 39.5 83 1.5 34.7 0
20:47 1026 30.3 855 25.25 4.1 39.3 83 1.4 34.5 0
20:48 1026 30.3 855 25.25 4 39.3 83 1.4 34.5 0
20:49 1026 30.3 855 25.25 3.9 39.1 83 1.4 34.4 0
20:50 1026 30.3 855 25.25 3.8 38.8 84 1.3 34.3 0
20:51 1026 30.3 855 25.25 3.7 38.7 84 1.3 34.3 0
20:52 1026 30.3 855 25.25 3.7 38.6 84 1.2 34.2 0
20:53 1026 30.3 855 25.25 3.6 38.5 84 1.1 34 0
20:54 1026 30.3 855 25.25 3.6 38.4 84 1.2 34.1 0
20:55 1026 30.3 855 25.25 3.5 38.3 84 1.1 34.1 0
20:56 1026 30.3 855 25.25 3.5 38.2 84 1 33.9 0
20:57 1026 30.3 855 25.25 3.4 38.1 84 1 33.8 0
20:58 1026 30.3 855 25.25 3.3 38 85 1 33.7 0
20:59 1026 30.3 855 25.25 3.3 37.9 85 1 33.8 0
21:00 1026 30.3 855 25.25 3.3 37.9 85 0.9 33.6 0
21:01 1026 30.3 855 25.25 3.2 37.8 85 0.9 33.7 0
21:02 1026 30.3 855 25.25 3.3 37.9 85 1 33.7 0
21:03 1026 30.3 855 25.25 3.3 37.9 84 0.9 33.7 0
21:04 1026 30.3 855 25.25 3.2 37.8 84 0.9 33.6 0
21:05 1026 30.3 855 25.25 3.2 37.8 85 0.9 33.6 0
21:06 1026 30.3 855 25.25 3.2 37.7 85 0.9 33.6 0
21:07 1026 30.3 855 25.25 3.1 37.7 85 0.9 33.6 0
21:08 1026 30.3 855 25.25 3.1 37.6 85 0.9 33.5 0
21:09 1026 30.3 855 25.25 3.1 37.5 86 0.9 33.6 0
21:10 1026 30.3 855 25.25 3.1 37.6 86 0.9 33.6 0
21:11 1026 30.3 855 25.25 3.1 37.5 86 0.9 33.6 0
21:12 1026 30.3 855 25.25 3.1 37.6 86 0.9 33.7 0
21:13 1026 30.3 855 25.25 3.1 37.5 86 0.9 33.6 0
21:14 1026 30.3 855 25.25 3.1 37.6 85 0.9 33.6 0
21:15 1026 30.3 855 25.25 3.1 37.6 85 0.9 33.6 0
21:16 1026 30.3 855 25.25 3.1 37.6 85 0.9 33.6 0
21:17 1026 30.3 855 25.25 3.1 37.6 85 0.8 33.5 0
21:18 1026 30.3 855 25.25 3.1 37.7 85 0.8 33.5 0
21:19 1026 30.3 855 25.25 3.1 37.5 84 0.7 33.2 0
21:20 1026 30.3 855 25.25 3 37.3 84 0.6 33.1 0
21:21 1026 30.3 855 25.25 2.8 37 85 0.4 32.8 0
21:22 1026 30.3 855 25.25 2.6 36.7 85 0.3 32.5 0
21:23 1026 30.3 855 25.25 2.4 36.3 86 0.3 32.5 0
21:24 1026 30.3 855 25.25 2.3 36.1 87 0.3 32.6 0
21:25 1026 30.3 855 25.25 2.1 35.8 88 0.3 32.5 0
21:26 1026 30.3 855 25.25 2 35.6 88 0.3 32.5 0
21:27 1026 30.3 855 25.25 2 35.7 89 0.4 32.7 0
21:28 1026 30.3 855 25.25 2 35.7 89 0.4 32.8 0
21:29 1026 30.3 855 25.25 2.1 35.7 89 0.5 32.8 0
21:30 1026 30.3 855 25.25 2.2 36 90 0.7 33.3 0
21:31 1026 30.3 855 25.25 2.4 36.4 89 0.7 33.3 0
21:32 1026 30.3 855 25.25 2.7 36.9 87 0.8 33.5 0
21:33 1026 30.3 855 25.25 2.9 37.3 86 0.9 33.6 0
21:34 1026 30.3 855 25.25 3.1 37.6 85 0.9 33.6 0
21:35 1026 30.3 855 25.25 3.3 37.9 85 0.9 33.7 0
21:36 1026 30.3 855 25.25 3.4 38.1 84 0.9 33.7 0
21:37 1026 30.3 855 25.25 3.5 38.3 84 1 33.7 0
21:38 1026 30.3 855 25.25 3.5 38.3 84 1 33.8 0
21:39 1026 30.3 855 25.25 3.5 38.3 84 1.1 33.9 0
21:40 1026 30.3 855 25.25 3.5 38.3 84 1.1 34 0
21:41 1026 30.3 855 25.25 3.5 38.3 85 1.1 34.1 0
21:42 1026 30.3 855 25.25 3.5 38.2 85 1.2 34.1 0
21:43 1026 30.3 855 25.25 3.4 38.2 85 1.1 34 0
21:44 1026 30.3 855 25.25 3.4 38.1 85 1.1 34 0
21:45 1026 30.3 855 25.25 3.4 38.2 85 1.1 34 0
21:46 1026 30.3 855 25.25 3.4 38.2 85 1.1 34 0
21:47 1026 30.3 855 25.25 3.5 38.4 85 1.2 34.1 0
21:48 1026 30.3 855 25.25 3.5 38.4 85 1.2 34.2 0
21:49 1026 30.3 855 25.25 3.5 38.4 85 1.3 34.3 0
21:50 1026 30.3 856 25.28 3.6 38.4 85 1.3 34.3 0
21:51 1026 30.3 856 25.28 3.5 38.4 85 1.3 34.3 0
21:52 1026 30.3 856 25.28 3.6 38.5 84 1.2 34.1 0
21:53 1026 30.3 856 25.28 3.8 38.9 83 1.2 34.2 0
21:54 1026 30.3 856 25.28 3.9 39.1 81 0.9 33.7 0
21:55 1026 30.3 856 25.28 4.1 39.4 81 1.1 34 0
21:56 1026 30.3 856 25.28 4.1 39.4 81 1.1 34 0
21:57 1026 30.3 856 25.28 4.1 39.4 81 1.1 34 0
21:58 1026 30.3 856 25.28 4.1 39.4 81 1.2 34.1 0
21:59 1026 30.3 856 25.28 4.1 39.3 81 1.2 34.1 0
22:00 1026 30.3 856 25.28 4 39.3 82 1.2 34.1 0
22:01 1026 30.3 856 25.28 4 39.2 82 1.2 34.2 0
22:02 1026 30.3 856 25.28 3.9 39 83 1.2 34.2 0
22:03 1026 30.3 856 25.28 3.8 38.9 83 1.3 34.3 0
22:04 1027 30.33 856 25.28 3.7 38.7 84 1.3 34.3 0
22:05 1027 30.33 856 25.28 3.7 38.6 84 1.2 34.2 0
22:06 1027 30.33 856 25.28 3.6 38.5 84 1.2 34.2 0
22:07 1027 30.33 856 25.28 3.6 38.4 84 1.2 34.2 0
22:08 1027 30.33 856 25.28 3.6 38.5 85 1.3 34.3 0
22:09 1027 30.33 856 25.28 3.5 38.3 85 1.2 34.2 0
22:10 1026 30.3 856 25.28 3.5 38.2 85 1.2 34.2 0
22:11 1026 30.3 856 25.28 3.4 38.2 86 1.2 34.2 0
22:12 1026 30.3 856 25.28 3.5 38.3 85 1.2 34.2 0
22:13 1027 30.33 856 25.28 3.5 38.3 85 1.3 34.3 0
22:14 1026 30.3 856 25.28 3.5 38.3 85 1.2 34.2 0
22:15 1026 30.3 856 25.28 3.5 38.3 85 1.2 34.2 0
22:16 1026 30.3 856 25.28 3.5 38.3 85 1.2 34.2 0
22:17 1027 30.33 856 25.28 3.5 38.3 85 1.2 34.1 0
22:18 1027 30.33 856 25.28 3.4 38.2 85 1.2 34.1 0
22:19 1027 30.33 856 25.28 3.3 38 86 1.1 34.1 0
22:20 1027 30.33 856 25.28 3.3 38 86 1.2 34.2 0
22:21 1027 30.33 856 25.28 3.3 37.9 86 1.1 34 0
22:22 1027 30.33 856 25.28 3.2 37.8 86 1.1 34 0
22:23 1027 30.33 856 25.28 3.1 37.6 87 1.1 34 0
22:24 1027 30.33 856 25.28 3.1 37.6 87 1.1 34 0
22:25 1027 30.33 856 25.28 3.1 37.5 87 1.1 34 0
22:26 1027 30.33 856 25.28 3 37.5 87 1.1 34 0
22:27 1027 30.33 856 25.28 3.1 37.5 87 1.1 34 0
22:28 1027 30.33 856 25.28 3.1 37.5 87 1.1 34 0
22:29 1027 30.33 856 25.28 3.1 37.6 87 1.1 34 0
22:30 1027 30.33 856 25.28 3.2 37.7 86 1.1 34 0
22:31 1027 30.33 856 25.28 3.2 37.8 86 1.1 34.1 0
22:32 1027 30.33 856 25.28 3.3 38 86 1.2 34.1 0
22:33 1027 30.33 856 25.28 3.4 38.1 85 1.1 34 0
22:34 1027 30.33 856 25.28 3.5 38.3 85 1.1 34.1 0
22:35 1027 30.33 856 25.28 3.5 38.3 84 1.1 34.1 0
22:36 1027 30.33 856 25.28 3.5 38.4 84 1.2 34.1 0
22:37 1027 30.33 856 25.28 3.5 38.4 85 1.2 34.2 0
22:38 1027 30.33 856 25.28 3.6 38.4 85 1.2 34.2 0
22:39 1027 30.33 856 25.28 3.6 38.4 85 1.3 34.3 0
22:40 1027 30.33 856 25.28 3.6 38.4 85 1.3 34.4 0
22:41 1027 30.33 856 25.28 3.5 38.4 86 1.3 34.4 0
22:42 1027 30.33 856 25.28 3.5 38.3 86 1.3 34.4 0
22:43 1027 30.33 856 25.28 3.5 38.3 86 1.3 34.4 0
22:44 1027 30.33 856 25.28 3.5 38.2 86 1.3 34.3 0
22:45 1027 30.33 856 25.28 3.5 38.2 86 1.3 34.3 0
22:46 1027 30.33 856 25.28 3.5 38.3 86 1.3 34.3 0
22:47 1027 30.33 856 25.28 3.4 38.2 86 1.3 34.3 0
22:48 1027 30.33 856 25.28 3.5 38.3 85 1.3 34.3 0
22:49 1027 30.33 856 25.28 3.5 38.3 85 1.2 34.2 0
22:50 1027 30.33 856 25.28 3.5 38.3 85 1.2 34.1 0
22:51 1027 30.33 856 25.28 3.5 38.3 85 1.2 34.2 0
22:52 1027 30.33 856 25.28 3.5 38.4 85 1.2 34.2 0
22:53 1027 30.33 856 25.28 3.5 38.4 85 1.2 34.2 0
22:54 1027 30.33 856 25.28 3.5 38.4 85 1.2 34.1 0
22:55 1027 30.33 856 25.28 3.6 38.4 85 1.2 34.2 0
22:56 1027 30.33 856 25.28 3.6 38.4 85 1.2 34.2 0
22:57 1027 30.33 856 25.28 3.6 38.5 84 1.2 34.2 0
22:58 1027 30.33 856 25.28 3.5 38.3 85 1.3 34.3 0
22:59 1027 30.33 856 25.28 3.5 38.3 86 1.3 34.4 0
23:00 1027 30.33 856 25.28 3.4 38.2 86 1.3 34.3 0
23:01 1027 30.33 856 25.28 3.4 38.1 86 1.3 34.4 0
23:02 1027 30.33 856 25.28 3.4 38.1 86 1.3 34.3 0
23:03 1027 30.33 856 25.28 3.4 38.2 86 1.3 34.3 0
23:04 1027 30.33 856 25.28 3.5 38.3 86 1.3 34.4 0
23:05 1027 30.33 856 25.28 3.5 38.4 85 1.3 34.3 0
23:06 1027 30.33 856 25.28 3.6 38.4 84 1.2 34.1 0
23:07 1027 30.33 856 25.28 3.7 38.7 83 1.1 34 0
23:08 1027 30.33 856 25.28 3.9 38.9 82 1.1 33.9 0
23:09 1027 30.33 856 25.28 4 39.1 82 1.2 34.2 0
23:10 1027 30.33 856 25.28 4 39.2 82 1.2 34.2 0
23:11 1027 30.33 856 25.28 4 39.2 82 1.2 34.2 0
23:12 1027 30.33 856 25.28 3.9 39.1 83 1.2 34.2 0
23:13 1027 30.33 856 25.28 3.9 39.1 83 1.3 34.3 0
23:14 1027 30.33 856 25.28 3.9 39 83 1.3 34.3 0
23:15 1027 30.33 856 25.28 3.8 38.9 84 1.3 34.3 0
23:16 1027 30.33 856 25.28 3.8 38.8 84 1.3 34.4 0
23:17 1027 30.33 856 25.28 3.8 38.8 84 1.3 34.3 0
23:18 1027 30.33 856 25.28 3.7 38.7 84 1.3 34.3 0
23:19 1027 30.33 856 25.28 3.7 38.7 84 1.3 34.3 0
23:20 1027 30.33 856 25.28 3.7 38.6 84 1.3 34.3 0
23:21 1027 30.33 856 25.28 3.6 38.5 84 1.2 34.2 0
23:22 1027 30.33 856 25.28 3.6 38.5 85 1.3 34.3 0
23:23 1027 30.33 856 25.28 3.6 38.5 85 1.3 34.3 0
23:24 1027 30.33 856 25.28 3.6 38.4 85 1.3 34.3 0
23:25 1027 30.33 856 25.28 3.5 38.4 85 1.3 34.3 0
23:26 1027 30.33 856 25.28 3.5 38.3 85 1.3 34.3 0
23:27 1027 30.33 856 25.28 3.5 38.3 85 1.3 34.3 0
23:28 1027 30.33 856 25.28 3.5 38.2 85 1.2 34.2 0
23:29 1027 30.33 856 25.28 3.5 38.4 85 1.3 34.3 0
23:30 1027 30.33 856 25.28 3.5 38.3 85 1.3 34.3 0
23:31 1027 30.33 856 25.28 3.5 38.3 85 1.2 34.2 0
23:32 1027 30.33 856 25.28 3.5 38.3 85 1.3 34.3 0
23:33 1027 30.33 856 25.28 3.5 38.3 86 1.3 34.4 0
23:34 1027 30.33 856 25.28 3.5 38.2 86 1.4 34.5 0
23:35 1027 30.33 856 25.28 3.4 38 88 1.5 34.7 0
23:36 1027 30.33 856 25.28 3.3 37.9 87 1.4 34.5 0
23:37 1027 30.33 856 25.28 3.4 38 87 1.3 34.4 0
23:38 1027 30.33 856 25.28 3.4 38.1 86 1.2 34.2 0
23:39 1027 30.33 856 25.28 3.5 38.4 85 1.3 34.3 0
23:40 1027 30.33 856 25.28 3.6 38.4 85 1.2 34.2 0
23:41 1027 30.33 856 25.28 3.7 38.6 84 1.2 34.2 0
23:42 1027 30.33 856 25.28 3.7 38.7 84 1.2 34.2 0
23:43 1027 30.33 856 25.28 3.7 38.7 84 1.3 34.3 0
23:44 1027 30.33 856 25.28 3.7 38.7 83 1.1 34 0
23:45 1027 30.33 856 25.28 3.8 38.8 82 1.1 33.9 0
23:46 1027 30.33 856 25.28 3.8 38.9 83 1.2 34.1 0
23:47 1027 30.33 856 25.28 3.8 38.8 83 1.2 34.1 0
23:48 1027 30.33 856 25.28 3.8 38.8 83 1.2 34.1 0
23:49 1027 30.33 856 25.28 3.8 38.8 83 1.2 34.2 0
23:50 1027 30.33 856 25.28 3.7 38.7 83 1.2 34.1 0
23:51 1027 30.33 856 25.28 3.7 38.7 84 1.2 34.1 0
23:52 1027 30.33 856 25.28 3.7 38.7 84 1.2 34.2 0
23:53 1027 30.33 856 25.28 3.7 38.6 84 1.2 34.2 0
23:54 1027 30.33 856 25.28 3.6 38.5 85 1.3 34.3 0
23:55 1027 30.33 856 25.28 3.5 38.3 85 1.2 34.2 0
23:56 1027 30.33 856 25.28 3.5 38.3 86 1.3 34.3 0
23:57 1027 30.33 856 25.28 3.4 38.2 86 1.3 34.3 0
23:58 1027 30.33 856 25.28 3.3 38 86 1.2 34.2 0
23:59 1027 30.33 856 25.28 3.3 37.9 87 1.3 34.3 0
24:00 1027 30.33 856 25.28 3.2 37.8 87 1.3 34.3 0